<?xml version="1.0" encoding="UTF-8" standalone="no" ?>
<gpx xmlns="http://www.topografix.com/GPX/1/1" xmlns:xsi="http://www.w3.org/2001/XMLSchema-instance" xsi:schemaLocation="http://www.topografix.com/GPX/1/1 http://www.topografix.com/GPX/1/1/gpx.xsd" version="1.1" creator="VisuGPX - https://www.visugpx.com">
  <metadata>
    <name>2017-03-31 - Pornichet</name>
  </metadata>
  <trk>
    <name><![CDATA[MARS-31-17 17:48:13]]></name>
    <trkseg>
      <trkpt lat="47.24789" lon="-2.311">
        <ele>21.77</ele>
        <time>2017-03-31T11:55:43Z</time>
      </trkpt>
      <trkpt lat="47.24782" lon="-2.31084">
        <ele>19.36</ele>
        <time>2017-03-31T11:56:10Z</time>
      </trkpt>
      <trkpt lat="47.24776" lon="-2.31075">
        <ele>24.17</ele>
        <time>2017-03-31T11:56:16Z</time>
      </trkpt>
      <trkpt lat="47.24769" lon="-2.31064">
        <ele>18.88</ele>
        <time>2017-03-31T11:56:23Z</time>
      </trkpt>
      <trkpt lat="47.24762" lon="-2.31053">
        <ele>22.73</ele>
        <time>2017-03-31T11:56:30Z</time>
      </trkpt>
      <trkpt lat="47.24754" lon="-2.31041">
        <ele>18.88</ele>
        <time>2017-03-31T11:56:39Z</time>
      </trkpt>
      <trkpt lat="47.24747" lon="-2.31029">
        <ele>22.73</ele>
        <time>2017-03-31T11:56:46Z</time>
      </trkpt>
      <trkpt lat="47.24741" lon="-2.31017">
        <ele>17.92</ele>
        <time>2017-03-31T11:56:53Z</time>
      </trkpt>
      <trkpt lat="47.24738" lon="-2.31003">
        <ele>21.29</ele>
        <time>2017-03-31T11:57:02Z</time>
      </trkpt>
      <trkpt lat="47.24737" lon="-2.30989">
        <ele>19.36</ele>
        <time>2017-03-31T11:57:10Z</time>
      </trkpt>
      <trkpt lat="47.24743" lon="-2.30975">
        <ele>22.25</ele>
        <time>2017-03-31T11:57:17Z</time>
      </trkpt>
      <trkpt lat="47.24752" lon="-2.30965">
        <ele>22.25</ele>
        <time>2017-03-31T11:57:24Z</time>
      </trkpt>
      <trkpt lat="47.24758" lon="-2.30951">
        <ele>23.21</ele>
        <time>2017-03-31T11:57:32Z</time>
      </trkpt>
      <trkpt lat="47.24764" lon="-2.30938">
        <ele>23.21</ele>
        <time>2017-03-31T11:57:39Z</time>
      </trkpt>
      <trkpt lat="47.24771" lon="-2.30927">
        <ele>23.21</ele>
        <time>2017-03-31T11:57:46Z</time>
      </trkpt>
      <trkpt lat="47.24776" lon="-2.30912">
        <ele>20.32</ele>
        <time>2017-03-31T11:57:54Z</time>
      </trkpt>
      <trkpt lat="47.2478" lon="-2.30897">
        <ele>24.17</ele>
        <time>2017-03-31T11:58:02Z</time>
      </trkpt>
      <trkpt lat="47.24782" lon="-2.30882">
        <ele>27.05</ele>
        <time>2017-03-31T11:58:09Z</time>
      </trkpt>
      <trkpt lat="47.24783" lon="-2.30864">
        <ele>22.25</ele>
        <time>2017-03-31T11:58:17Z</time>
      </trkpt>
      <trkpt lat="47.24783" lon="-2.30846">
        <ele>26.09</ele>
        <time>2017-03-31T11:58:25Z</time>
      </trkpt>
      <trkpt lat="47.24785" lon="-2.30829">
        <ele>27.05</ele>
        <time>2017-03-31T11:58:32Z</time>
      </trkpt>
      <trkpt lat="47.2479" lon="-2.30814">
        <ele>24.65</ele>
        <time>2017-03-31T11:58:39Z</time>
      </trkpt>
      <trkpt lat="47.24793" lon="-2.308">
        <ele>23.69</ele>
        <time>2017-03-31T11:58:46Z</time>
      </trkpt>
      <trkpt lat="47.24797" lon="-2.30785">
        <ele>28.5</ele>
        <time>2017-03-31T11:58:54Z</time>
      </trkpt>
      <trkpt lat="47.24801" lon="-2.30771">
        <ele>27.05</ele>
        <time>2017-03-31T11:59:01Z</time>
      </trkpt>
      <trkpt lat="47.24808" lon="-2.3076">
        <ele>29.94</ele>
        <time>2017-03-31T11:59:08Z</time>
      </trkpt>
      <trkpt lat="47.24817" lon="-2.30762">
        <ele>28.02</ele>
        <time>2017-03-31T11:59:15Z</time>
      </trkpt>
      <trkpt lat="47.24828" lon="-2.30767">
        <ele>28.02</ele>
        <time>2017-03-31T11:59:23Z</time>
      </trkpt>
      <trkpt lat="47.24839" lon="-2.30769">
        <ele>28.98</ele>
        <time>2017-03-31T11:59:31Z</time>
      </trkpt>
      <trkpt lat="47.2485" lon="-2.30771">
        <ele>29.46</ele>
        <time>2017-03-31T11:59:40Z</time>
      </trkpt>
      <trkpt lat="47.24863" lon="-2.30773">
        <ele>28.02</ele>
        <time>2017-03-31T11:59:49Z</time>
      </trkpt>
      <trkpt lat="47.24874" lon="-2.30774">
        <ele>27.53</ele>
        <time>2017-03-31T11:59:57Z</time>
      </trkpt>
      <trkpt lat="47.24886" lon="-2.30775">
        <ele>30.9</ele>
        <time>2017-03-31T12:00:05Z</time>
      </trkpt>
      <trkpt lat="47.24896" lon="-2.30774">
        <ele>29.94</ele>
        <time>2017-03-31T12:00:12Z</time>
      </trkpt>
      <trkpt lat="47.24906" lon="-2.3078">
        <ele>28.5</ele>
        <time>2017-03-31T12:00:19Z</time>
      </trkpt>
      <trkpt lat="47.24912" lon="-2.30791">
        <ele>28.02</ele>
        <time>2017-03-31T12:00:26Z</time>
      </trkpt>
      <trkpt lat="47.24922" lon="-2.30798">
        <ele>28.5</ele>
        <time>2017-03-31T12:00:34Z</time>
      </trkpt>
      <trkpt lat="47.24931" lon="-2.30804">
        <ele>30.9</ele>
        <time>2017-03-31T12:00:41Z</time>
      </trkpt>
      <trkpt lat="47.24937" lon="-2.30816">
        <ele>30.42</ele>
        <time>2017-03-31T12:00:48Z</time>
      </trkpt>
      <trkpt lat="47.24943" lon="-2.30828">
        <ele>27.05</ele>
        <time>2017-03-31T12:00:56Z</time>
      </trkpt>
      <trkpt lat="47.2495" lon="-2.30841">
        <ele>26.57</ele>
        <time>2017-03-31T12:01:04Z</time>
      </trkpt>
      <trkpt lat="47.24956" lon="-2.30853">
        <ele>27.53</ele>
        <time>2017-03-31T12:01:11Z</time>
      </trkpt>
      <trkpt lat="47.24961" lon="-2.30866">
        <ele>29.46</ele>
        <time>2017-03-31T12:01:19Z</time>
      </trkpt>
      <trkpt lat="47.24971" lon="-2.30869">
        <ele>27.53</ele>
        <time>2017-03-31T12:01:27Z</time>
      </trkpt>
      <trkpt lat="47.24982" lon="-2.30865">
        <ele>26.57</ele>
        <time>2017-03-31T12:01:35Z</time>
      </trkpt>
      <trkpt lat="47.24992" lon="-2.30859">
        <ele>25.61</ele>
        <time>2017-03-31T12:01:43Z</time>
      </trkpt>
      <trkpt lat="47.25004" lon="-2.30852">
        <ele>26.57</ele>
        <time>2017-03-31T12:21:47Z</time>
      </trkpt>
      <trkpt lat="47.25012" lon="-2.30845">
        <ele>27.05</ele>
        <time>2017-03-31T12:22:06Z</time>
      </trkpt>
      <trkpt lat="47.25021" lon="-2.3084">
        <ele>26.09</ele>
        <time>2017-03-31T12:22:13Z</time>
      </trkpt>
      <trkpt lat="47.25033" lon="-2.30835">
        <ele>25.13</ele>
        <time>2017-03-31T12:22:21Z</time>
      </trkpt>
      <trkpt lat="47.25043" lon="-2.30827">
        <ele>24.17</ele>
        <time>2017-03-31T12:22:28Z</time>
      </trkpt>
      <trkpt lat="47.25053" lon="-2.30821">
        <ele>27.05</ele>
        <time>2017-03-31T12:22:35Z</time>
      </trkpt>
      <trkpt lat="47.25063" lon="-2.30818">
        <ele>25.61</ele>
        <time>2017-03-31T12:22:42Z</time>
      </trkpt>
      <trkpt lat="47.25072" lon="-2.30813">
        <ele>22.25</ele>
        <time>2017-03-31T12:22:48Z</time>
      </trkpt>
      <trkpt lat="47.2508" lon="-2.30807">
        <ele>27.05</ele>
        <time>2017-03-31T12:22:55Z</time>
      </trkpt>
      <trkpt lat="47.2509" lon="-2.30801">
        <ele>24.65</ele>
        <time>2017-03-31T12:23:03Z</time>
      </trkpt>
      <trkpt lat="47.25099" lon="-2.30793">
        <ele>25.13</ele>
        <time>2017-03-31T12:23:10Z</time>
      </trkpt>
      <trkpt lat="47.25109" lon="-2.30785">
        <ele>23.69</ele>
        <time>2017-03-31T12:23:18Z</time>
      </trkpt>
      <trkpt lat="47.25119" lon="-2.30777">
        <ele>24.65</ele>
        <time>2017-03-31T12:23:26Z</time>
      </trkpt>
      <trkpt lat="47.25128" lon="-2.30772">
        <ele>23.69</ele>
        <time>2017-03-31T12:23:34Z</time>
      </trkpt>
      <trkpt lat="47.25139" lon="-2.30771">
        <ele>23.69</ele>
        <time>2017-03-31T12:23:41Z</time>
      </trkpt>
      <trkpt lat="47.25148" lon="-2.30763">
        <ele>23.21</ele>
        <time>2017-03-31T12:23:48Z</time>
      </trkpt>
      <trkpt lat="47.25157" lon="-2.30754">
        <ele>23.21</ele>
        <time>2017-03-31T12:23:55Z</time>
      </trkpt>
      <trkpt lat="47.25165" lon="-2.30746">
        <ele>18.88</ele>
        <time>2017-03-31T12:24:02Z</time>
      </trkpt>
      <trkpt lat="47.25174" lon="-2.30739">
        <ele>23.21</ele>
        <time>2017-03-31T12:24:09Z</time>
      </trkpt>
      <trkpt lat="47.25183" lon="-2.30731">
        <ele>23.21</ele>
        <time>2017-03-31T12:24:16Z</time>
      </trkpt>
      <trkpt lat="47.25191" lon="-2.30721">
        <ele>21.77</ele>
        <time>2017-03-31T12:24:24Z</time>
      </trkpt>
      <trkpt lat="47.252" lon="-2.30712">
        <ele>21.77</ele>
        <time>2017-03-31T12:24:31Z</time>
      </trkpt>
      <trkpt lat="47.25209" lon="-2.30704">
        <ele>20.81</ele>
        <time>2017-03-31T12:24:38Z</time>
      </trkpt>
      <trkpt lat="47.25217" lon="-2.30695">
        <ele>24.65</ele>
        <time>2017-03-31T12:24:45Z</time>
      </trkpt>
      <trkpt lat="47.25227" lon="-2.30692">
        <ele>18.88</ele>
        <time>2017-03-31T12:24:53Z</time>
      </trkpt>
      <trkpt lat="47.25234" lon="-2.30702">
        <ele>25.61</ele>
        <time>2017-03-31T12:25:00Z</time>
      </trkpt>
      <trkpt lat="47.25238" lon="-2.30716">
        <ele>19.36</ele>
        <time>2017-03-31T12:25:07Z</time>
      </trkpt>
      <trkpt lat="47.25241" lon="-2.30732">
        <ele>22.73</ele>
        <time>2017-03-31T12:25:14Z</time>
      </trkpt>
      <trkpt lat="47.25243" lon="-2.30746">
        <ele>20.81</ele>
        <time>2017-03-31T12:25:20Z</time>
      </trkpt>
      <trkpt lat="47.25246" lon="-2.30761">
        <ele>20.81</ele>
        <time>2017-03-31T12:25:27Z</time>
      </trkpt>
      <trkpt lat="47.25249" lon="-2.30774">
        <ele>20.32</ele>
        <time>2017-03-31T12:25:34Z</time>
      </trkpt>
      <trkpt lat="47.25251" lon="-2.30787">
        <ele>18.88</ele>
        <time>2017-03-31T12:25:41Z</time>
      </trkpt>
      <trkpt lat="47.25253" lon="-2.30801">
        <ele>21.77</ele>
        <time>2017-03-31T12:25:48Z</time>
      </trkpt>
      <trkpt lat="47.25256" lon="-2.30815">
        <ele>16.48</ele>
        <time>2017-03-31T12:25:55Z</time>
      </trkpt>
      <trkpt lat="47.25258" lon="-2.30829">
        <ele>20.32</ele>
        <time>2017-03-31T12:26:02Z</time>
      </trkpt>
      <trkpt lat="47.25261" lon="-2.30844">
        <ele>18.4</ele>
        <time>2017-03-31T12:26:09Z</time>
      </trkpt>
      <trkpt lat="47.25265" lon="-2.30857">
        <ele>14.56</ele>
        <time>2017-03-31T12:26:16Z</time>
      </trkpt>
      <trkpt lat="47.2527" lon="-2.3087">
        <ele>16.96</ele>
        <time>2017-03-31T12:26:23Z</time>
      </trkpt>
      <trkpt lat="47.25272" lon="-2.30884">
        <ele>20.32</ele>
        <time>2017-03-31T12:26:29Z</time>
      </trkpt>
      <trkpt lat="47.25275" lon="-2.30898">
        <ele>14.56</ele>
        <time>2017-03-31T12:26:36Z</time>
      </trkpt>
      <trkpt lat="47.25276" lon="-2.30912">
        <ele>16</ele>
        <time>2017-03-31T12:26:43Z</time>
      </trkpt>
      <trkpt lat="47.25281" lon="-2.30927">
        <ele>16.96</ele>
        <time>2017-03-31T12:26:51Z</time>
      </trkpt>
      <trkpt lat="47.25285" lon="-2.30942">
        <ele>16.48</ele>
        <time>2017-03-31T12:26:58Z</time>
      </trkpt>
      <trkpt lat="47.25289" lon="-2.30958">
        <ele>14.08</ele>
        <time>2017-03-31T12:27:05Z</time>
      </trkpt>
      <trkpt lat="47.25292" lon="-2.30971">
        <ele>17.92</ele>
        <time>2017-03-31T12:27:12Z</time>
      </trkpt>
      <trkpt lat="47.25297" lon="-2.30983">
        <ele>14.56</ele>
        <time>2017-03-31T12:27:18Z</time>
      </trkpt>
      <trkpt lat="47.25301" lon="-2.30997">
        <ele>14.08</ele>
        <time>2017-03-31T12:27:25Z</time>
      </trkpt>
      <trkpt lat="47.25305" lon="-2.31011">
        <ele>15.52</ele>
        <time>2017-03-31T12:27:32Z</time>
      </trkpt>
      <trkpt lat="47.25309" lon="-2.31026">
        <ele>16.96</ele>
        <time>2017-03-31T12:27:39Z</time>
      </trkpt>
      <trkpt lat="47.25313" lon="-2.31041">
        <ele>13.12</ele>
        <time>2017-03-31T12:27:46Z</time>
      </trkpt>
      <trkpt lat="47.25316" lon="-2.31055">
        <ele>16</ele>
        <time>2017-03-31T12:27:53Z</time>
      </trkpt>
      <trkpt lat="47.2532" lon="-2.31069">
        <ele>11.67</ele>
        <time>2017-03-31T12:28:00Z</time>
      </trkpt>
      <trkpt lat="47.25323" lon="-2.31082">
        <ele>14.08</ele>
        <time>2017-03-31T12:28:07Z</time>
      </trkpt>
      <trkpt lat="47.25324" lon="-2.31098">
        <ele>11.67</ele>
        <time>2017-03-31T12:28:14Z</time>
      </trkpt>
      <trkpt lat="47.25324" lon="-2.31115">
        <ele>14.08</ele>
        <time>2017-03-31T12:28:21Z</time>
      </trkpt>
      <trkpt lat="47.25324" lon="-2.3113">
        <ele>12.63</ele>
        <time>2017-03-31T12:28:28Z</time>
      </trkpt>
      <trkpt lat="47.25328" lon="-2.31144">
        <ele>11.67</ele>
        <time>2017-03-31T12:28:35Z</time>
      </trkpt>
      <trkpt lat="47.25334" lon="-2.31157">
        <ele>14.08</ele>
        <time>2017-03-31T12:28:42Z</time>
      </trkpt>
      <trkpt lat="47.25337" lon="-2.31171">
        <ele>9.27</ele>
        <time>2017-03-31T12:28:49Z</time>
      </trkpt>
      <trkpt lat="47.2534" lon="-2.31185">
        <ele>13.6</ele>
        <time>2017-03-31T12:28:56Z</time>
      </trkpt>
      <trkpt lat="47.25341" lon="-2.31201">
        <ele>11.67</ele>
        <time>2017-03-31T12:29:03Z</time>
      </trkpt>
      <trkpt lat="47.25341" lon="-2.31216">
        <ele>13.12</ele>
        <time>2017-03-31T12:29:10Z</time>
      </trkpt>
      <trkpt lat="47.25343" lon="-2.31231">
        <ele>10.71</ele>
        <time>2017-03-31T12:29:17Z</time>
      </trkpt>
      <trkpt lat="47.25344" lon="-2.31246">
        <ele>14.56</ele>
        <time>2017-03-31T12:29:24Z</time>
      </trkpt>
      <trkpt lat="47.25345" lon="-2.31262">
        <ele>15.04</ele>
        <time>2017-03-31T12:29:32Z</time>
      </trkpt>
      <trkpt lat="47.25343" lon="-2.31278">
        <ele>12.15</ele>
        <time>2017-03-31T12:29:40Z</time>
      </trkpt>
      <trkpt lat="47.25344" lon="-2.31294">
        <ele>16</ele>
        <time>2017-03-31T12:29:48Z</time>
      </trkpt>
      <trkpt lat="47.25343" lon="-2.31309">
        <ele>13.12</ele>
        <time>2017-03-31T12:29:55Z</time>
      </trkpt>
      <trkpt lat="47.25343" lon="-2.31324">
        <ele>16.48</ele>
        <time>2017-03-31T12:30:02Z</time>
      </trkpt>
      <trkpt lat="47.25339" lon="-2.31339">
        <ele>15.04</ele>
        <time>2017-03-31T12:30:09Z</time>
      </trkpt>
      <trkpt lat="47.25335" lon="-2.31355">
        <ele>15.04</ele>
        <time>2017-03-31T12:30:16Z</time>
      </trkpt>
      <trkpt lat="47.25331" lon="-2.31368">
        <ele>16.48</ele>
        <time>2017-03-31T12:30:22Z</time>
      </trkpt>
      <trkpt lat="47.25326" lon="-2.31385">
        <ele>14.56</ele>
        <time>2017-03-31T12:30:29Z</time>
      </trkpt>
      <trkpt lat="47.25324" lon="-2.31399">
        <ele>19.36</ele>
        <time>2017-03-31T12:30:36Z</time>
      </trkpt>
      <trkpt lat="47.25322" lon="-2.31413">
        <ele>15.04</ele>
        <time>2017-03-31T12:30:43Z</time>
      </trkpt>
      <trkpt lat="47.25324" lon="-2.31427">
        <ele>18.4</ele>
        <time>2017-03-31T12:30:50Z</time>
      </trkpt>
      <trkpt lat="47.2533" lon="-2.3144">
        <ele>14.56</ele>
        <time>2017-03-31T12:30:57Z</time>
      </trkpt>
      <trkpt lat="47.25331" lon="-2.31454">
        <ele>19.36</ele>
        <time>2017-03-31T12:31:05Z</time>
      </trkpt>
      <trkpt lat="47.25331" lon="-2.31471">
        <ele>17.44</ele>
        <time>2017-03-31T12:31:12Z</time>
      </trkpt>
      <trkpt lat="47.25333" lon="-2.31486">
        <ele>13.6</ele>
        <time>2017-03-31T12:31:19Z</time>
      </trkpt>
      <trkpt lat="47.25335" lon="-2.31502">
        <ele>18.4</ele>
        <time>2017-03-31T12:31:26Z</time>
      </trkpt>
      <trkpt lat="47.25338" lon="-2.31517">
        <ele>16</ele>
        <time>2017-03-31T12:31:35Z</time>
      </trkpt>
      <trkpt lat="47.25342" lon="-2.31533">
        <ele>12.63</ele>
        <time>2017-03-31T12:31:43Z</time>
      </trkpt>
      <trkpt lat="47.25347" lon="-2.31547">
        <ele>16</ele>
        <time>2017-03-31T12:31:52Z</time>
      </trkpt>
      <trkpt lat="47.25358" lon="-2.31565">
        <ele>17.44</ele>
        <time>2017-03-31T12:32:02Z</time>
      </trkpt>
      <trkpt lat="47.25368" lon="-2.31577">
        <ele>13.12</ele>
        <time>2017-03-31T12:32:10Z</time>
      </trkpt>
      <trkpt lat="47.25375" lon="-2.31589">
        <ele>13.12</ele>
        <time>2017-03-31T12:32:17Z</time>
      </trkpt>
      <trkpt lat="47.25382" lon="-2.316">
        <ele>14.56</ele>
        <time>2017-03-31T12:32:25Z</time>
      </trkpt>
      <trkpt lat="47.25389" lon="-2.31614">
        <ele>13.6</ele>
        <time>2017-03-31T12:32:34Z</time>
      </trkpt>
      <trkpt lat="47.25395" lon="-2.31627">
        <ele>13.12</ele>
        <time>2017-03-31T12:32:43Z</time>
      </trkpt>
      <trkpt lat="47.25404" lon="-2.31628">
        <ele>16</ele>
        <time>2017-03-31T12:32:55Z</time>
      </trkpt>
      <trkpt lat="47.25402" lon="-2.3164">
        <ele>14.56</ele>
        <time>2017-03-31T12:33:45Z</time>
      </trkpt>
      <trkpt lat="47.25407" lon="-2.31644">
        <ele>11.19</ele>
        <time>2017-03-31T12:34:24Z</time>
      </trkpt>
      <trkpt lat="47.25406" lon="-2.3165">
        <ele>9.75</ele>
        <time>2017-03-31T12:44:22Z</time>
      </trkpt>
      <trkpt lat="47.2541" lon="-2.31665">
        <ele>6.87</ele>
        <time>2017-03-31T12:44:30Z</time>
      </trkpt>
      <trkpt lat="47.25415" lon="-2.31678">
        <ele>6.39</ele>
        <time>2017-03-31T12:44:38Z</time>
      </trkpt>
      <trkpt lat="47.25422" lon="-2.31692">
        <ele>7.83</ele>
        <time>2017-03-31T12:44:46Z</time>
      </trkpt>
      <trkpt lat="47.25427" lon="-2.31707">
        <ele>4.46</ele>
        <time>2017-03-31T12:44:53Z</time>
      </trkpt>
      <trkpt lat="47.25432" lon="-2.31719">
        <ele>6.87</ele>
        <time>2017-03-31T12:45:00Z</time>
      </trkpt>
      <trkpt lat="47.25438" lon="-2.31735">
        <ele>8.79</ele>
        <time>2017-03-31T12:45:08Z</time>
      </trkpt>
      <trkpt lat="47.25444" lon="-2.31749">
        <ele>7.83</ele>
        <time>2017-03-31T12:45:15Z</time>
      </trkpt>
      <trkpt lat="47.25448" lon="-2.31765">
        <ele>5.91</ele>
        <time>2017-03-31T12:45:22Z</time>
      </trkpt>
      <trkpt lat="47.25451" lon="-2.31778">
        <ele>5.42</ele>
        <time>2017-03-31T12:45:29Z</time>
      </trkpt>
      <trkpt lat="47.25454" lon="-2.31792">
        <ele>7.83</ele>
        <time>2017-03-31T12:45:36Z</time>
      </trkpt>
      <trkpt lat="47.25457" lon="-2.31807">
        <ele>3.02</ele>
        <time>2017-03-31T12:45:43Z</time>
      </trkpt>
      <trkpt lat="47.25464" lon="-2.31821">
        <ele>7.35</ele>
        <time>2017-03-31T12:45:51Z</time>
      </trkpt>
      <trkpt lat="47.25467" lon="-2.31835">
        <ele>4.94</ele>
        <time>2017-03-31T12:45:58Z</time>
      </trkpt>
      <trkpt lat="47.25476" lon="-2.31838">
        <ele>4.94</ele>
        <time>2017-03-31T12:46:06Z</time>
      </trkpt>
      <trkpt lat="47.25485" lon="-2.31832">
        <ele>6.87</ele>
        <time>2017-03-31T12:46:13Z</time>
      </trkpt>
      <trkpt lat="47.25495" lon="-2.31828">
        <ele>5.42</ele>
        <time>2017-03-31T12:46:20Z</time>
      </trkpt>
      <trkpt lat="47.25505" lon="-2.31823">
        <ele>6.39</ele>
        <time>2017-03-31T12:46:28Z</time>
      </trkpt>
      <trkpt lat="47.25515" lon="-2.31818">
        <ele>3.5</ele>
        <time>2017-03-31T12:46:35Z</time>
      </trkpt>
      <trkpt lat="47.25526" lon="-2.31816">
        <ele>6.87</ele>
        <time>2017-03-31T12:46:42Z</time>
      </trkpt>
      <trkpt lat="47.25537" lon="-2.31814">
        <ele>4.94</ele>
        <time>2017-03-31T12:46:49Z</time>
      </trkpt>
      <trkpt lat="47.25546" lon="-2.3181">
        <ele>2.54</ele>
        <time>2017-03-31T12:46:55Z</time>
      </trkpt>
      <trkpt lat="47.25556" lon="-2.31807">
        <ele>6.87</ele>
        <time>2017-03-31T12:47:02Z</time>
      </trkpt>
      <trkpt lat="47.2556" lon="-2.31817">
        <ele>2.06</ele>
        <time>2017-03-31T12:47:08Z</time>
      </trkpt>
      <trkpt lat="47.25559" lon="-2.31831">
        <ele>5.91</ele>
        <time>2017-03-31T12:47:15Z</time>
      </trkpt>
      <trkpt lat="47.2556" lon="-2.31847">
        <ele>3.5</ele>
        <time>2017-03-31T12:47:22Z</time>
      </trkpt>
      <trkpt lat="47.2556" lon="-2.31861">
        <ele>3.02</ele>
        <time>2017-03-31T12:47:29Z</time>
      </trkpt>
      <trkpt lat="47.25563" lon="-2.31874">
        <ele>8.79</ele>
        <time>2017-03-31T12:47:36Z</time>
      </trkpt>
      <trkpt lat="47.2557" lon="-2.31888">
        <ele>3.02</ele>
        <time>2017-03-31T12:47:43Z</time>
      </trkpt>
      <trkpt lat="47.25568" lon="-2.31904">
        <ele>2.06</ele>
        <time>2017-03-31T12:47:50Z</time>
      </trkpt>
      <trkpt lat="47.25568" lon="-2.3192">
        <ele>3.98</ele>
        <time>2017-03-31T12:47:57Z</time>
      </trkpt>
      <trkpt lat="47.25569" lon="-2.31935">
        <ele>5.42</ele>
        <time>2017-03-31T12:48:04Z</time>
      </trkpt>
      <trkpt lat="47.2557" lon="-2.31951">
        <ele>6.39</ele>
        <time>2017-03-31T12:48:12Z</time>
      </trkpt>
      <trkpt lat="47.25573" lon="-2.31967">
        <ele>2.54</ele>
        <time>2017-03-31T12:48:20Z</time>
      </trkpt>
      <trkpt lat="47.25576" lon="-2.31982">
        <ele>0.62</ele>
        <time>2017-03-31T12:48:27Z</time>
      </trkpt>
      <trkpt lat="47.2558" lon="-2.31998">
        <ele>0.62</ele>
        <time>2017-03-31T12:48:35Z</time>
      </trkpt>
      <trkpt lat="47.25586" lon="-2.32012">
        <ele>4.46</ele>
        <time>2017-03-31T12:48:43Z</time>
      </trkpt>
      <trkpt lat="47.2559" lon="-2.32028">
        <ele>0.62</ele>
        <time>2017-03-31T12:48:51Z</time>
      </trkpt>
      <trkpt lat="47.25594" lon="-2.32042">
        <ele>2.54</ele>
        <time>2017-03-31T12:48:58Z</time>
      </trkpt>
      <trkpt lat="47.25598" lon="-2.32058">
        <ele>3.98</ele>
        <time>2017-03-31T12:49:06Z</time>
      </trkpt>
      <trkpt lat="47.25603" lon="-2.32074">
        <ele>-1.3</ele>
        <time>2017-03-31T12:49:15Z</time>
      </trkpt>
      <trkpt lat="47.25609" lon="-2.32088">
        <ele>3.5</ele>
        <time>2017-03-31T12:49:22Z</time>
      </trkpt>
      <trkpt lat="47.25613" lon="-2.32101">
        <ele>-1.3</ele>
        <time>2017-03-31T12:49:29Z</time>
      </trkpt>
      <trkpt lat="47.25619" lon="-2.32116">
        <ele>4.46</ele>
        <time>2017-03-31T12:49:37Z</time>
      </trkpt>
      <trkpt lat="47.25624" lon="-2.32132">
        <ele>1.58</ele>
        <time>2017-03-31T12:49:45Z</time>
      </trkpt>
      <trkpt lat="47.25631" lon="-2.32146">
        <ele>-1.3</ele>
        <time>2017-03-31T12:49:53Z</time>
      </trkpt>
      <trkpt lat="47.25638" lon="-2.3216">
        <ele>3.5</ele>
        <time>2017-03-31T12:50:00Z</time>
      </trkpt>
      <trkpt lat="47.25643" lon="-2.3218">
        <ele>2.54</ele>
        <time>2017-03-31T12:50:11Z</time>
      </trkpt>
      <trkpt lat="47.25648" lon="-2.32198">
        <ele>1.1</ele>
        <time>2017-03-31T12:50:20Z</time>
      </trkpt>
      <trkpt lat="47.25653" lon="-2.32212">
        <ele>1.1</ele>
        <time>2017-03-31T12:50:28Z</time>
      </trkpt>
      <trkpt lat="47.25653" lon="-2.32234">
        <ele>2.06</ele>
        <time>2017-03-31T12:50:35Z</time>
      </trkpt>
      <trkpt lat="47.25653" lon="-2.32252">
        <ele>-1.3</ele>
        <time>2017-03-31T12:50:42Z</time>
      </trkpt>
      <trkpt lat="47.25654" lon="-2.32269">
        <ele>-2.75</ele>
        <time>2017-03-31T12:50:50Z</time>
      </trkpt>
      <trkpt lat="47.25655" lon="-2.32284">
        <ele>-4.19</ele>
        <time>2017-03-31T12:50:57Z</time>
      </trkpt>
      <trkpt lat="47.25655" lon="-2.323">
        <ele>-5.15</ele>
        <time>2017-03-31T12:51:05Z</time>
      </trkpt>
      <trkpt lat="47.25657" lon="-2.32316">
        <ele>-6.59</ele>
        <time>2017-03-31T12:51:13Z</time>
      </trkpt>
      <trkpt lat="47.25658" lon="-2.32333">
        <ele>-2.27</ele>
        <time>2017-03-31T12:51:20Z</time>
      </trkpt>
      <trkpt lat="47.25659" lon="-2.32348">
        <ele>-4.19</ele>
        <time>2017-03-31T12:51:27Z</time>
      </trkpt>
      <trkpt lat="47.25661" lon="-2.32366">
        <ele>-4.67</ele>
        <time>2017-03-31T12:51:36Z</time>
      </trkpt>
      <trkpt lat="47.25661" lon="-2.32382">
        <ele>-9.96</ele>
        <time>2017-03-31T12:51:44Z</time>
      </trkpt>
      <trkpt lat="47.25661" lon="-2.32399">
        <ele>-10.92</ele>
        <time>2017-03-31T12:51:51Z</time>
      </trkpt>
      <trkpt lat="47.25663" lon="-2.32416">
        <ele>-6.59</ele>
        <time>2017-03-31T12:51:58Z</time>
      </trkpt>
      <trkpt lat="47.25664" lon="-2.32433">
        <ele>-7.55</ele>
        <time>2017-03-31T12:52:05Z</time>
      </trkpt>
      <trkpt lat="47.25667" lon="-2.32448">
        <ele>-9.48</ele>
        <time>2017-03-31T12:52:12Z</time>
      </trkpt>
      <trkpt lat="47.2567" lon="-2.32462">
        <ele>-5.63</ele>
        <time>2017-03-31T12:52:19Z</time>
      </trkpt>
      <trkpt lat="47.25674" lon="-2.32476">
        <ele>-11.4</ele>
        <time>2017-03-31T12:52:26Z</time>
      </trkpt>
      <trkpt lat="47.25679" lon="-2.32492">
        <ele>-6.59</ele>
        <time>2017-03-31T12:52:33Z</time>
      </trkpt>
      <trkpt lat="47.25682" lon="-2.32508">
        <ele>-4.19</ele>
        <time>2017-03-31T12:52:40Z</time>
      </trkpt>
      <trkpt lat="47.25687" lon="-2.32522">
        <ele>-9.96</ele>
        <time>2017-03-31T12:52:47Z</time>
      </trkpt>
      <trkpt lat="47.25691" lon="-2.32535">
        <ele>-4.67</ele>
        <time>2017-03-31T12:52:54Z</time>
      </trkpt>
      <trkpt lat="47.25693" lon="-2.32551">
        <ele>-9.48</ele>
        <time>2017-03-31T12:53:01Z</time>
      </trkpt>
      <trkpt lat="47.25697" lon="-2.32565">
        <ele>-1.79</ele>
        <time>2017-03-31T12:53:08Z</time>
      </trkpt>
      <trkpt lat="47.25702" lon="-2.3258">
        <ele>-4.67</ele>
        <time>2017-03-31T12:53:15Z</time>
      </trkpt>
      <trkpt lat="47.25705" lon="-2.32593">
        <ele>-4.67</ele>
        <time>2017-03-31T12:53:22Z</time>
      </trkpt>
      <trkpt lat="47.25708" lon="-2.32607">
        <ele>-2.75</ele>
        <time>2017-03-31T12:53:29Z</time>
      </trkpt>
      <trkpt lat="47.25711" lon="-2.32622">
        <ele>-6.59</ele>
        <time>2017-03-31T12:53:36Z</time>
      </trkpt>
      <trkpt lat="47.25713" lon="-2.32635">
        <ele>-0.82</ele>
        <time>2017-03-31T12:53:43Z</time>
      </trkpt>
      <trkpt lat="47.25715" lon="-2.3265">
        <ele>-5.63</ele>
        <time>2017-03-31T12:53:50Z</time>
      </trkpt>
      <trkpt lat="47.25716" lon="-2.32665">
        <ele>-2.27</ele>
        <time>2017-03-31T12:53:57Z</time>
      </trkpt>
      <trkpt lat="47.25718" lon="-2.3268">
        <ele>-4.67</ele>
        <time>2017-03-31T12:54:04Z</time>
      </trkpt>
      <trkpt lat="47.2572" lon="-2.32695">
        <ele>-2.27</ele>
        <time>2017-03-31T12:54:11Z</time>
      </trkpt>
      <trkpt lat="47.25724" lon="-2.32709">
        <ele>-4.19</ele>
        <time>2017-03-31T12:54:17Z</time>
      </trkpt>
      <trkpt lat="47.25726" lon="-2.32724">
        <ele>-0.34</ele>
        <time>2017-03-31T12:54:24Z</time>
      </trkpt>
      <trkpt lat="47.25725" lon="-2.32738">
        <ele>-2.75</ele>
        <time>2017-03-31T12:54:31Z</time>
      </trkpt>
      <trkpt lat="47.25726" lon="-2.32752">
        <ele>-2.27</ele>
        <time>2017-03-31T12:54:38Z</time>
      </trkpt>
      <trkpt lat="47.25728" lon="-2.32768">
        <ele>-1.3</ele>
        <time>2017-03-31T12:54:46Z</time>
      </trkpt>
      <trkpt lat="47.2573" lon="-2.32782">
        <ele>-1.79</ele>
        <time>2017-03-31T12:54:53Z</time>
      </trkpt>
      <trkpt lat="47.25732" lon="-2.32797">
        <ele>0.62</ele>
        <time>2017-03-31T12:55:00Z</time>
      </trkpt>
      <trkpt lat="47.25736" lon="-2.32812">
        <ele>-3.23</ele>
        <time>2017-03-31T12:55:07Z</time>
      </trkpt>
      <trkpt lat="47.2574" lon="-2.32826">
        <ele>-0.82</ele>
        <time>2017-03-31T12:55:14Z</time>
      </trkpt>
      <trkpt lat="47.25745" lon="-2.32841">
        <ele>0.14</ele>
        <time>2017-03-31T12:55:21Z</time>
      </trkpt>
      <trkpt lat="47.2575" lon="-2.32854">
        <ele>-5.15</ele>
        <time>2017-03-31T12:55:28Z</time>
      </trkpt>
      <trkpt lat="47.25756" lon="-2.32865">
        <ele>-1.79</ele>
        <time>2017-03-31T12:55:34Z</time>
      </trkpt>
      <trkpt lat="47.25762" lon="-2.32876">
        <ele>-0.82</ele>
        <time>2017-03-31T12:55:41Z</time>
      </trkpt>
      <trkpt lat="47.2577" lon="-2.32886">
        <ele>-0.82</ele>
        <time>2017-03-31T12:55:48Z</time>
      </trkpt>
      <trkpt lat="47.25777" lon="-2.32899">
        <ele>-3.23</ele>
        <time>2017-03-31T12:55:55Z</time>
      </trkpt>
      <trkpt lat="47.25785" lon="-2.32909">
        <ele>-3.71</ele>
        <time>2017-03-31T12:56:01Z</time>
      </trkpt>
      <trkpt lat="47.25792" lon="-2.32918">
        <ele>-2.27</ele>
        <time>2017-03-31T12:56:08Z</time>
      </trkpt>
      <trkpt lat="47.25799" lon="-2.32928">
        <ele>-5.63</ele>
        <time>2017-03-31T12:56:15Z</time>
      </trkpt>
      <trkpt lat="47.25807" lon="-2.32938">
        <ele>-6.11</ele>
        <time>2017-03-31T12:56:22Z</time>
      </trkpt>
      <trkpt lat="47.25814" lon="-2.32948">
        <ele>-3.23</ele>
        <time>2017-03-31T12:56:29Z</time>
      </trkpt>
      <trkpt lat="47.25822" lon="-2.32958">
        <ele>-2.75</ele>
        <time>2017-03-31T12:56:36Z</time>
      </trkpt>
      <trkpt lat="47.25828" lon="-2.32969">
        <ele>-7.55</ele>
        <time>2017-03-31T12:56:43Z</time>
      </trkpt>
      <trkpt lat="47.25835" lon="-2.3298">
        <ele>-3.71</ele>
        <time>2017-03-31T12:56:50Z</time>
      </trkpt>
      <trkpt lat="47.25843" lon="-2.32989">
        <ele>-6.59</ele>
        <time>2017-03-31T12:56:57Z</time>
      </trkpt>
      <trkpt lat="47.2585" lon="-2.33001">
        <ele>-7.55</ele>
        <time>2017-03-31T12:57:04Z</time>
      </trkpt>
      <trkpt lat="47.25857" lon="-2.33011">
        <ele>-2.75</ele>
        <time>2017-03-31T12:57:10Z</time>
      </trkpt>
      <trkpt lat="47.25862" lon="-2.33026">
        <ele>-8.51</ele>
        <time>2017-03-31T12:57:17Z</time>
      </trkpt>
      <trkpt lat="47.25866" lon="-2.33039">
        <ele>-8.51</ele>
        <time>2017-03-31T12:57:24Z</time>
      </trkpt>
      <trkpt lat="47.2587" lon="-2.33053">
        <ele>-2.75</ele>
        <time>2017-03-31T12:57:31Z</time>
      </trkpt>
      <trkpt lat="47.25874" lon="-2.33065">
        <ele>-8.03</ele>
        <time>2017-03-31T12:57:37Z</time>
      </trkpt>
      <trkpt lat="47.25877" lon="-2.33078">
        <ele>-9.48</ele>
        <time>2017-03-31T12:57:44Z</time>
      </trkpt>
      <trkpt lat="47.25882" lon="-2.33092">
        <ele>-5.63</ele>
        <time>2017-03-31T12:57:52Z</time>
      </trkpt>
      <trkpt lat="47.25888" lon="-2.33106">
        <ele>-7.55</ele>
        <time>2017-03-31T12:57:59Z</time>
      </trkpt>
      <trkpt lat="47.25892" lon="-2.33121">
        <ele>-9.96</ele>
        <time>2017-03-31T12:58:06Z</time>
      </trkpt>
      <trkpt lat="47.25896" lon="-2.33134">
        <ele>-6.59</ele>
        <time>2017-03-31T12:58:13Z</time>
      </trkpt>
      <trkpt lat="47.25899" lon="-2.33148">
        <ele>-7.07</ele>
        <time>2017-03-31T12:58:19Z</time>
      </trkpt>
      <trkpt lat="47.25903" lon="-2.33163">
        <ele>-6.59</ele>
        <time>2017-03-31T12:58:26Z</time>
      </trkpt>
      <trkpt lat="47.25903" lon="-2.33178">
        <ele>-11.88</ele>
        <time>2017-03-31T12:58:33Z</time>
      </trkpt>
      <trkpt lat="47.25903" lon="-2.33192">
        <ele>-9</ele>
        <time>2017-03-31T12:58:40Z</time>
      </trkpt>
      <trkpt lat="47.25904" lon="-2.33207">
        <ele>-9</ele>
        <time>2017-03-31T12:58:47Z</time>
      </trkpt>
      <trkpt lat="47.25908" lon="-2.3322">
        <ele>-9.96</ele>
        <time>2017-03-31T12:58:54Z</time>
      </trkpt>
      <trkpt lat="47.2591" lon="-2.33235">
        <ele>-9</ele>
        <time>2017-03-31T12:59:01Z</time>
      </trkpt>
      <trkpt lat="47.25909" lon="-2.33249">
        <ele>-10.92</ele>
        <time>2017-03-31T12:59:07Z</time>
      </trkpt>
      <trkpt lat="47.25909" lon="-2.33263">
        <ele>-7.55</ele>
        <time>2017-03-31T12:59:14Z</time>
      </trkpt>
      <trkpt lat="47.25909" lon="-2.33278">
        <ele>-9</ele>
        <time>2017-03-31T12:59:21Z</time>
      </trkpt>
      <trkpt lat="47.2591" lon="-2.33293">
        <ele>-9.48</ele>
        <time>2017-03-31T12:59:28Z</time>
      </trkpt>
      <trkpt lat="47.25909" lon="-2.33307">
        <ele>-9.48</ele>
        <time>2017-03-31T12:59:35Z</time>
      </trkpt>
      <trkpt lat="47.25911" lon="-2.33322">
        <ele>-5.63</ele>
        <time>2017-03-31T12:59:43Z</time>
      </trkpt>
      <trkpt lat="47.25914" lon="-2.33337">
        <ele>-10.44</ele>
        <time>2017-03-31T12:59:52Z</time>
      </trkpt>
      <trkpt lat="47.25916" lon="-2.33353">
        <ele>-9.48</ele>
        <time>2017-03-31T13:00:00Z</time>
      </trkpt>
      <trkpt lat="47.25919" lon="-2.33368">
        <ele>-6.59</ele>
        <time>2017-03-31T13:00:07Z</time>
      </trkpt>
      <trkpt lat="47.25925" lon="-2.33383">
        <ele>-10.92</ele>
        <time>2017-03-31T13:00:16Z</time>
      </trkpt>
      <trkpt lat="47.25924" lon="-2.33399">
        <ele>-7.55</ele>
        <time>2017-03-31T13:00:23Z</time>
      </trkpt>
      <trkpt lat="47.25926" lon="-2.33415">
        <ele>-9.48</ele>
        <time>2017-03-31T13:00:30Z</time>
      </trkpt>
      <trkpt lat="47.25931" lon="-2.33429">
        <ele>-7.55</ele>
        <time>2017-03-31T13:00:38Z</time>
      </trkpt>
      <trkpt lat="47.25936" lon="-2.33442">
        <ele>-8.51</ele>
        <time>2017-03-31T13:00:45Z</time>
      </trkpt>
      <trkpt lat="47.25941" lon="-2.33457">
        <ele>-7.07</ele>
        <time>2017-03-31T13:00:54Z</time>
      </trkpt>
      <trkpt lat="47.25947" lon="-2.33468">
        <ele>-11.4</ele>
        <time>2017-03-31T13:01:04Z</time>
      </trkpt>
      <trkpt lat="47.25955" lon="-2.3348">
        <ele>-7.07</ele>
        <time>2017-03-31T13:01:12Z</time>
      </trkpt>
      <trkpt lat="47.25955" lon="-2.33495">
        <ele>-7.07</ele>
        <time>2017-03-31T13:01:20Z</time>
      </trkpt>
      <trkpt lat="47.25964" lon="-2.335">
        <ele>-9</ele>
        <time>2017-03-31T13:01:30Z</time>
      </trkpt>
      <trkpt lat="47.25973" lon="-2.33515">
        <ele>-8.03</ele>
        <time>2017-03-31T13:01:39Z</time>
      </trkpt>
      <trkpt lat="47.2598" lon="-2.33529">
        <ele>-9.48</ele>
        <time>2017-03-31T13:01:46Z</time>
      </trkpt>
      <trkpt lat="47.25989" lon="-2.33543">
        <ele>-9</ele>
        <time>2017-03-31T13:01:53Z</time>
      </trkpt>
      <trkpt lat="47.25997" lon="-2.33558">
        <ele>-7.55</ele>
        <time>2017-03-31T13:02:00Z</time>
      </trkpt>
      <trkpt lat="47.26005" lon="-2.33567">
        <ele>-9.96</ele>
        <time>2017-03-31T13:02:08Z</time>
      </trkpt>
      <trkpt lat="47.26012" lon="-2.33572">
        <ele>-8.03</ele>
        <time>2017-03-31T13:02:15Z</time>
      </trkpt>
      <trkpt lat="47.26013" lon="-2.33595">
        <ele>-9.48</ele>
        <time>2017-03-31T13:02:23Z</time>
      </trkpt>
      <trkpt lat="47.26018" lon="-2.33615">
        <ele>-8.51</ele>
        <time>2017-03-31T13:02:31Z</time>
      </trkpt>
      <trkpt lat="47.26018" lon="-2.33633">
        <ele>-7.07</ele>
        <time>2017-03-31T13:02:39Z</time>
      </trkpt>
      <trkpt lat="47.26017" lon="-2.33647">
        <ele>-7.07</ele>
        <time>2017-03-31T13:02:46Z</time>
      </trkpt>
      <trkpt lat="47.26015" lon="-2.33662">
        <ele>-10.44</ele>
        <time>2017-03-31T13:02:54Z</time>
      </trkpt>
      <trkpt lat="47.26014" lon="-2.33677">
        <ele>-10.44</ele>
        <time>2017-03-31T13:03:02Z</time>
      </trkpt>
      <trkpt lat="47.26016" lon="-2.3369">
        <ele>-5.63</ele>
        <time>2017-03-31T13:03:11Z</time>
      </trkpt>
      <trkpt lat="47.26025" lon="-2.33698">
        <ele>-6.11</ele>
        <time>2017-03-31T13:03:19Z</time>
      </trkpt>
      <trkpt lat="47.26033" lon="-2.33708">
        <ele>-7.55</ele>
        <time>2017-03-31T13:03:27Z</time>
      </trkpt>
      <trkpt lat="47.2603" lon="-2.33726">
        <ele>-10.44</ele>
        <time>2017-03-31T13:03:35Z</time>
      </trkpt>
      <trkpt lat="47.26028" lon="-2.33739">
        <ele>-10.92</ele>
        <time>2017-03-31T13:03:42Z</time>
      </trkpt>
      <trkpt lat="47.26024" lon="-2.33754">
        <ele>-7.55</ele>
        <time>2017-03-31T13:03:50Z</time>
      </trkpt>
      <trkpt lat="47.26019" lon="-2.33767">
        <ele>-5.63</ele>
        <time>2017-03-31T13:03:57Z</time>
      </trkpt>
      <trkpt lat="47.26023" lon="-2.33775">
        <ele>-9.48</ele>
        <time>2017-03-31T13:04:07Z</time>
      </trkpt>
      <trkpt lat="47.26031" lon="-2.33786">
        <ele>-6.59</ele>
        <time>2017-03-31T13:04:15Z</time>
      </trkpt>
      <trkpt lat="47.2604" lon="-2.33794">
        <ele>-9.48</ele>
        <time>2017-03-31T13:04:23Z</time>
      </trkpt>
      <trkpt lat="47.26047" lon="-2.33801">
        <ele>-8.03</ele>
        <time>2017-03-31T13:04:37Z</time>
      </trkpt>
      <trkpt lat="47.26049" lon="-2.33786">
        <ele>-8.51</ele>
        <time>2017-03-31T13:04:54Z</time>
      </trkpt>
      <trkpt lat="47.26056" lon="-2.33803">
        <ele>-6.59</ele>
        <time>2017-03-31T13:05:15Z</time>
      </trkpt>
      <trkpt lat="47.26065" lon="-2.33815">
        <ele>-8.03</ele>
        <time>2017-03-31T13:05:25Z</time>
      </trkpt>
      <trkpt lat="47.26078" lon="-2.3382">
        <ele>-8.03</ele>
        <time>2017-03-31T13:05:35Z</time>
      </trkpt>
      <trkpt lat="47.2609" lon="-2.33821">
        <ele>-9.48</ele>
        <time>2017-03-31T13:05:44Z</time>
      </trkpt>
      <trkpt lat="47.26098" lon="-2.33814">
        <ele>-8.03</ele>
        <time>2017-03-31T13:05:53Z</time>
      </trkpt>
      <trkpt lat="47.26106" lon="-2.33806">
        <ele>-8.51</ele>
        <time>2017-03-31T13:06:03Z</time>
      </trkpt>
      <trkpt lat="47.26114" lon="-2.33807">
        <ele>-4.67</ele>
        <time>2017-03-31T13:32:08Z</time>
      </trkpt>
      <trkpt lat="47.26127" lon="-2.33809">
        <ele>-5.15</ele>
        <time>2017-03-31T13:32:19Z</time>
      </trkpt>
      <trkpt lat="47.26141" lon="-2.33807">
        <ele>-2.75</ele>
        <time>2017-03-31T13:32:30Z</time>
      </trkpt>
      <trkpt lat="47.26151" lon="-2.33797">
        <ele>-7.55</ele>
        <time>2017-03-31T13:32:38Z</time>
      </trkpt>
      <trkpt lat="47.26162" lon="-2.33793">
        <ele>-4.67</ele>
        <time>2017-03-31T13:32:47Z</time>
      </trkpt>
      <trkpt lat="47.26171" lon="-2.33799">
        <ele>-2.75</ele>
        <time>2017-03-31T13:32:55Z</time>
      </trkpt>
      <trkpt lat="47.26168" lon="-2.33795">
        <ele>-6.11</ele>
        <time>2017-03-31T13:33:06Z</time>
      </trkpt>
      <trkpt lat="47.26163" lon="-2.33784">
        <ele>-2.27</ele>
        <time>2017-03-31T13:33:13Z</time>
      </trkpt>
      <trkpt lat="47.26157" lon="-2.33773">
        <ele>-3.71</ele>
        <time>2017-03-31T13:33:21Z</time>
      </trkpt>
      <trkpt lat="47.26159" lon="-2.33757">
        <ele>-4.19</ele>
        <time>2017-03-31T13:33:29Z</time>
      </trkpt>
      <trkpt lat="47.26169" lon="-2.3375">
        <ele>-4.67</ele>
        <time>2017-03-31T13:33:38Z</time>
      </trkpt>
      <trkpt lat="47.26179" lon="-2.33741">
        <ele>-5.63</ele>
        <time>2017-03-31T13:33:46Z</time>
      </trkpt>
      <trkpt lat="47.26188" lon="-2.33738">
        <ele>-6.11</ele>
        <time>2017-03-31T13:33:53Z</time>
      </trkpt>
      <trkpt lat="47.26197" lon="-2.3373">
        <ele>-2.27</ele>
        <time>2017-03-31T13:34:01Z</time>
      </trkpt>
      <trkpt lat="47.26207" lon="-2.33724">
        <ele>-5.15</ele>
        <time>2017-03-31T13:34:09Z</time>
      </trkpt>
      <trkpt lat="47.26217" lon="-2.33716">
        <ele>-2.75</ele>
        <time>2017-03-31T13:34:17Z</time>
      </trkpt>
      <trkpt lat="47.26227" lon="-2.33712">
        <ele>-3.71</ele>
        <time>2017-03-31T13:34:25Z</time>
      </trkpt>
      <trkpt lat="47.26236" lon="-2.33707">
        <ele>-4.67</ele>
        <time>2017-03-31T13:34:34Z</time>
      </trkpt>
      <trkpt lat="47.26245" lon="-2.33698">
        <ele>-4.67</ele>
        <time>2017-03-31T13:34:42Z</time>
      </trkpt>
      <trkpt lat="47.26256" lon="-2.33692">
        <ele>-1.79</ele>
        <time>2017-03-31T13:34:50Z</time>
      </trkpt>
      <trkpt lat="47.26266" lon="-2.3369">
        <ele>-5.15</ele>
        <time>2017-03-31T13:34:58Z</time>
      </trkpt>
      <trkpt lat="47.26275" lon="-2.33683">
        <ele>-2.27</ele>
        <time>2017-03-31T13:35:07Z</time>
      </trkpt>
      <trkpt lat="47.26286" lon="-2.33674">
        <ele>-4.67</ele>
        <time>2017-03-31T13:35:16Z</time>
      </trkpt>
      <trkpt lat="47.26296" lon="-2.33669">
        <ele>-1.3</ele>
        <time>2017-03-31T13:35:24Z</time>
      </trkpt>
      <trkpt lat="47.26305" lon="-2.33661">
        <ele>-5.63</ele>
        <time>2017-03-31T13:35:32Z</time>
      </trkpt>
      <trkpt lat="47.26315" lon="-2.33655">
        <ele>-5.15</ele>
        <time>2017-03-31T13:35:41Z</time>
      </trkpt>
      <trkpt lat="47.26325" lon="-2.33648">
        <ele>-1.79</ele>
        <time>2017-03-31T13:35:49Z</time>
      </trkpt>
      <trkpt lat="47.26337" lon="-2.33648">
        <ele>-3.71</ele>
        <time>2017-03-31T13:35:57Z</time>
      </trkpt>
      <trkpt lat="47.26346" lon="-2.3364">
        <ele>-3.23</ele>
        <time>2017-03-31T13:36:08Z</time>
      </trkpt>
      <trkpt lat="47.26356" lon="-2.33633">
        <ele>-2.75</ele>
        <time>2017-03-31T13:36:16Z</time>
      </trkpt>
      <trkpt lat="47.26367" lon="-2.33622">
        <ele>-4.19</ele>
        <time>2017-03-31T13:36:24Z</time>
      </trkpt>
      <trkpt lat="47.26378" lon="-2.33614">
        <ele>-4.67</ele>
        <time>2017-03-31T13:36:33Z</time>
      </trkpt>
      <trkpt lat="47.26386" lon="-2.3361">
        <ele>-4.67</ele>
        <time>2017-03-31T13:36:41Z</time>
      </trkpt>
      <trkpt lat="47.26396" lon="-2.33607">
        <ele>-4.67</ele>
        <time>2017-03-31T13:36:50Z</time>
      </trkpt>
      <trkpt lat="47.26406" lon="-2.33602">
        <ele>-6.11</ele>
        <time>2017-03-31T13:36:58Z</time>
      </trkpt>
      <trkpt lat="47.26417" lon="-2.33598">
        <ele>-1.3</ele>
        <time>2017-03-31T13:37:07Z</time>
      </trkpt>
      <trkpt lat="47.26427" lon="-2.33594">
        <ele>-3.23</ele>
        <time>2017-03-31T13:37:16Z</time>
      </trkpt>
      <trkpt lat="47.2644" lon="-2.33606">
        <ele>-2.75</ele>
        <time>2017-03-31T13:37:40Z</time>
      </trkpt>
      <trkpt lat="47.26453" lon="-2.33617">
        <ele>1.1</ele>
        <time>2017-03-31T13:37:49Z</time>
      </trkpt>
      <trkpt lat="47.26463" lon="-2.3363">
        <ele>-0.82</ele>
        <time>2017-03-31T13:37:58Z</time>
      </trkpt>
      <trkpt lat="47.26471" lon="-2.3364">
        <ele>0.14</ele>
        <time>2017-03-31T13:38:07Z</time>
      </trkpt>
      <trkpt lat="47.26481" lon="-2.3365">
        <ele>-0.82</ele>
        <time>2017-03-31T13:38:16Z</time>
      </trkpt>
      <trkpt lat="47.26491" lon="-2.33656">
        <ele>-0.82</ele>
        <time>2017-03-31T13:38:26Z</time>
      </trkpt>
      <trkpt lat="47.26502" lon="-2.33665">
        <ele>-0.82</ele>
        <time>2017-03-31T13:38:35Z</time>
      </trkpt>
      <trkpt lat="47.26511" lon="-2.3367">
        <ele>-1.3</ele>
        <time>2017-03-31T13:38:44Z</time>
      </trkpt>
      <trkpt lat="47.26521" lon="-2.33671">
        <ele>-2.75</ele>
        <time>2017-03-31T13:38:52Z</time>
      </trkpt>
      <trkpt lat="47.26532" lon="-2.33674">
        <ele>-0.82</ele>
        <time>2017-03-31T13:39:01Z</time>
      </trkpt>
      <trkpt lat="47.26542" lon="-2.33677">
        <ele>-1.79</ele>
        <time>2017-03-31T13:39:09Z</time>
      </trkpt>
      <trkpt lat="47.26554" lon="-2.3368">
        <ele>-3.71</ele>
        <time>2017-03-31T13:39:18Z</time>
      </trkpt>
      <trkpt lat="47.26566" lon="-2.33685">
        <ele>-0.82</ele>
        <time>2017-03-31T13:39:26Z</time>
      </trkpt>
      <trkpt lat="47.26576" lon="-2.33692">
        <ele>0.14</ele>
        <time>2017-03-31T13:39:34Z</time>
      </trkpt>
      <trkpt lat="47.26586" lon="-2.33693">
        <ele>-3.23</ele>
        <time>2017-03-31T13:39:42Z</time>
      </trkpt>
      <trkpt lat="47.26597" lon="-2.33691">
        <ele>-3.23</ele>
        <time>2017-03-31T13:39:51Z</time>
      </trkpt>
      <trkpt lat="47.26606" lon="-2.33696">
        <ele>-1.3</ele>
        <time>2017-03-31T13:39:59Z</time>
      </trkpt>
      <trkpt lat="47.26612" lon="-2.33708">
        <ele>-1.79</ele>
        <time>2017-03-31T13:40:07Z</time>
      </trkpt>
      <trkpt lat="47.26617" lon="-2.33722">
        <ele>-1.79</ele>
        <time>2017-03-31T13:40:16Z</time>
      </trkpt>
      <trkpt lat="47.26624" lon="-2.33735">
        <ele>-2.27</ele>
        <time>2017-03-31T13:40:25Z</time>
      </trkpt>
      <trkpt lat="47.26632" lon="-2.33747">
        <ele>-1.79</ele>
        <time>2017-03-31T13:40:34Z</time>
      </trkpt>
      <trkpt lat="47.26639" lon="-2.3376">
        <ele>-2.27</ele>
        <time>2017-03-31T13:40:43Z</time>
      </trkpt>
      <trkpt lat="47.26648" lon="-2.33772">
        <ele>-1.79</ele>
        <time>2017-03-31T13:40:52Z</time>
      </trkpt>
      <trkpt lat="47.26656" lon="-2.33783">
        <ele>0.62</ele>
        <time>2017-03-31T13:41:01Z</time>
      </trkpt>
      <trkpt lat="47.26663" lon="-2.33796">
        <ele>-1.3</ele>
        <time>2017-03-31T13:41:10Z</time>
      </trkpt>
      <trkpt lat="47.26671" lon="-2.33809">
        <ele>-2.75</ele>
        <time>2017-03-31T13:41:18Z</time>
      </trkpt>
      <trkpt lat="47.26679" lon="-2.33822">
        <ele>0.62</ele>
        <time>2017-03-31T13:41:26Z</time>
      </trkpt>
      <trkpt lat="47.26685" lon="-2.33833">
        <ele>-0.82</ele>
        <time>2017-03-31T13:41:34Z</time>
      </trkpt>
      <trkpt lat="47.26692" lon="-2.33845">
        <ele>-1.79</ele>
        <time>2017-03-31T13:41:42Z</time>
      </trkpt>
      <trkpt lat="47.26699" lon="-2.33857">
        <ele>0.62</ele>
        <time>2017-03-31T13:41:51Z</time>
      </trkpt>
      <trkpt lat="47.2671" lon="-2.33866">
        <ele>0.62</ele>
        <time>2017-03-31T13:42:00Z</time>
      </trkpt>
      <trkpt lat="47.26717" lon="-2.33879">
        <ele>-0.82</ele>
        <time>2017-03-31T13:42:08Z</time>
      </trkpt>
      <trkpt lat="47.26723" lon="-2.3389">
        <ele>-0.34</ele>
        <time>2017-03-31T13:42:16Z</time>
      </trkpt>
      <trkpt lat="47.26729" lon="-2.33901">
        <ele>0.14</ele>
        <time>2017-03-31T13:42:25Z</time>
      </trkpt>
      <trkpt lat="47.26736" lon="-2.33912">
        <ele>-1.79</ele>
        <time>2017-03-31T13:42:33Z</time>
      </trkpt>
      <trkpt lat="47.26744" lon="-2.33924">
        <ele>-0.82</ele>
        <time>2017-03-31T13:42:43Z</time>
      </trkpt>
      <trkpt lat="47.26752" lon="-2.33937">
        <ele>0.14</ele>
        <time>2017-03-31T13:42:53Z</time>
      </trkpt>
      <trkpt lat="47.26759" lon="-2.33949">
        <ele>-1.3</ele>
        <time>2017-03-31T13:43:02Z</time>
      </trkpt>
      <trkpt lat="47.26771" lon="-2.33961">
        <ele>-0.34</ele>
        <time>2017-03-31T13:43:11Z</time>
      </trkpt>
      <trkpt lat="47.26781" lon="-2.33974">
        <ele>-0.34</ele>
        <time>2017-03-31T13:43:20Z</time>
      </trkpt>
      <trkpt lat="47.26787" lon="-2.33985">
        <ele>-1.79</ele>
        <time>2017-03-31T13:43:28Z</time>
      </trkpt>
      <trkpt lat="47.26794" lon="-2.33998">
        <ele>-1.3</ele>
        <time>2017-03-31T13:43:37Z</time>
      </trkpt>
      <trkpt lat="47.26799" lon="-2.34009">
        <ele>-1.79</ele>
        <time>2017-03-31T13:43:45Z</time>
      </trkpt>
      <trkpt lat="47.26807" lon="-2.34019">
        <ele>-0.82</ele>
        <time>2017-03-31T13:43:53Z</time>
      </trkpt>
      <trkpt lat="47.26815" lon="-2.34031">
        <ele>-1.3</ele>
        <time>2017-03-31T13:44:01Z</time>
      </trkpt>
      <trkpt lat="47.26823" lon="-2.34043">
        <ele>-0.82</ele>
        <time>2017-03-31T13:44:10Z</time>
      </trkpt>
      <trkpt lat="47.26831" lon="-2.34057">
        <ele>1.1</ele>
        <time>2017-03-31T13:44:19Z</time>
      </trkpt>
      <trkpt lat="47.26838" lon="-2.34068">
        <ele>-0.82</ele>
        <time>2017-03-31T13:44:28Z</time>
      </trkpt>
      <trkpt lat="47.26845" lon="-2.3408">
        <ele>-2.75</ele>
        <time>2017-03-31T13:44:37Z</time>
      </trkpt>
      <trkpt lat="47.26852" lon="-2.34093">
        <ele>-2.75</ele>
        <time>2017-03-31T13:44:46Z</time>
      </trkpt>
      <trkpt lat="47.2686" lon="-2.34106">
        <ele>-1.3</ele>
        <time>2017-03-31T13:44:55Z</time>
      </trkpt>
      <trkpt lat="47.26868" lon="-2.34116">
        <ele>-4.19</ele>
        <time>2017-03-31T13:45:03Z</time>
      </trkpt>
      <trkpt lat="47.26876" lon="-2.34127">
        <ele>-2.27</ele>
        <time>2017-03-31T13:45:12Z</time>
      </trkpt>
      <trkpt lat="47.26886" lon="-2.3414">
        <ele>-0.34</ele>
        <time>2017-03-31T13:45:21Z</time>
      </trkpt>
      <trkpt lat="47.26893" lon="-2.34151">
        <ele>-1.79</ele>
        <time>2017-03-31T13:45:29Z</time>
      </trkpt>
      <trkpt lat="47.26899" lon="-2.34165">
        <ele>-0.34</ele>
        <time>2017-03-31T13:45:38Z</time>
      </trkpt>
      <trkpt lat="47.26905" lon="-2.34177">
        <ele>-0.34</ele>
        <time>2017-03-31T13:45:47Z</time>
      </trkpt>
      <trkpt lat="47.26912" lon="-2.34189">
        <ele>1.1</ele>
        <time>2017-03-31T13:45:56Z</time>
      </trkpt>
      <trkpt lat="47.26918" lon="-2.34203">
        <ele>-2.27</ele>
        <time>2017-03-31T13:46:07Z</time>
      </trkpt>
      <trkpt lat="47.26931" lon="-2.34207">
        <ele>2.06</ele>
        <time>2017-03-31T13:46:16Z</time>
      </trkpt>
      <trkpt lat="47.26938" lon="-2.34218">
        <ele>0.62</ele>
        <time>2017-03-31T13:46:25Z</time>
      </trkpt>
      <trkpt lat="47.26947" lon="-2.34231">
        <ele>0.14</ele>
        <time>2017-03-31T13:46:35Z</time>
      </trkpt>
      <trkpt lat="47.26955" lon="-2.34241">
        <ele>-1.3</ele>
        <time>2017-03-31T13:46:45Z</time>
      </trkpt>
      <trkpt lat="47.26965" lon="-2.34251">
        <ele>-0.34</ele>
        <time>2017-03-31T13:46:55Z</time>
      </trkpt>
      <trkpt lat="47.26974" lon="-2.34262">
        <ele>-0.82</ele>
        <time>2017-03-31T13:47:05Z</time>
      </trkpt>
      <trkpt lat="47.26981" lon="-2.34279">
        <ele>-0.82</ele>
        <time>2017-03-31T13:47:15Z</time>
      </trkpt>
      <trkpt lat="47.26989" lon="-2.34291">
        <ele>-0.82</ele>
        <time>2017-03-31T13:47:25Z</time>
      </trkpt>
      <trkpt lat="47.26995" lon="-2.34309">
        <ele>-1.3</ele>
        <time>2017-03-31T13:47:36Z</time>
      </trkpt>
      <trkpt lat="47.27005" lon="-2.34312">
        <ele>-0.82</ele>
        <time>2017-03-31T13:47:45Z</time>
      </trkpt>
      <trkpt lat="47.2701" lon="-2.34326">
        <ele>-0.34</ele>
        <time>2017-03-31T13:47:53Z</time>
      </trkpt>
      <trkpt lat="47.27009" lon="-2.34344">
        <ele>1.1</ele>
        <time>2017-03-31T13:48:03Z</time>
      </trkpt>
      <trkpt lat="47.27012" lon="-2.34359">
        <ele>1.58</ele>
        <time>2017-03-31T13:48:12Z</time>
      </trkpt>
      <trkpt lat="47.27015" lon="-2.34374">
        <ele>-1.3</ele>
        <time>2017-03-31T13:48:22Z</time>
      </trkpt>
      <trkpt lat="47.27019" lon="-2.3439">
        <ele>-0.82</ele>
        <time>2017-03-31T13:48:31Z</time>
      </trkpt>
      <trkpt lat="47.27023" lon="-2.34405">
        <ele>1.1</ele>
        <time>2017-03-31T13:48:40Z</time>
      </trkpt>
      <trkpt lat="47.27027" lon="-2.34421">
        <ele>0.62</ele>
        <time>2017-03-31T13:48:49Z</time>
      </trkpt>
      <trkpt lat="47.27034" lon="-2.34434">
        <ele>0.14</ele>
        <time>2017-03-31T13:49:01Z</time>
      </trkpt>
      <trkpt lat="47.27037" lon="-2.34446">
        <ele>-0.34</ele>
        <time>2017-03-31T13:49:11Z</time>
      </trkpt>
      <trkpt lat="47.2704" lon="-2.34461">
        <ele>0.14</ele>
        <time>2017-03-31T13:49:22Z</time>
      </trkpt>
      <trkpt lat="47.27043" lon="-2.34479">
        <ele>0.14</ele>
        <time>2017-03-31T13:49:33Z</time>
      </trkpt>
      <trkpt lat="47.27039" lon="-2.34482">
        <ele>1.58</ele>
        <time>2017-03-31T13:50:39Z</time>
      </trkpt>
      <trkpt lat="47.27046" lon="-2.34488">
        <ele>-0.82</ele>
        <time>2017-03-31T13:50:52Z</time>
      </trkpt>
      <trkpt lat="47.27047" lon="-2.34487">
        <ele>0.14</ele>
        <time>2017-03-31T13:51:11Z</time>
      </trkpt>
      <trkpt lat="47.27038" lon="-2.34483">
        <ele>0.14</ele>
        <time>2017-03-31T13:51:20Z</time>
      </trkpt>
      <trkpt lat="47.27041" lon="-2.34484">
        <ele>-0.34</ele>
        <time>2017-03-31T13:52:21Z</time>
      </trkpt>
      <trkpt lat="47.27054" lon="-2.34499">
        <ele>-0.34</ele>
        <time>2017-03-31T13:53:12Z</time>
      </trkpt>
      <trkpt lat="47.27059" lon="-2.34508">
        <ele>-0.34</ele>
        <time>2017-03-31T13:53:21Z</time>
      </trkpt>
      <trkpt lat="47.27065" lon="-2.34508">
        <ele>-0.34</ele>
        <time>2017-03-31T13:54:11Z</time>
      </trkpt>
      <trkpt lat="47.27062" lon="-2.34502">
        <ele>-0.82</ele>
        <time>2017-03-31T13:54:29Z</time>
      </trkpt>
      <trkpt lat="47.27061" lon="-2.34514">
        <ele>-0.82</ele>
        <time>2017-03-31T13:54:39Z</time>
      </trkpt>
      <trkpt lat="47.27062" lon="-2.34526">
        <ele>-0.34</ele>
        <time>2017-03-31T13:54:49Z</time>
      </trkpt>
      <trkpt lat="47.27062" lon="-2.3454">
        <ele>-0.34</ele>
        <time>2017-03-31T13:55:00Z</time>
      </trkpt>
      <trkpt lat="47.27063" lon="-2.34546">
        <ele>-0.34</ele>
        <time>2017-03-31T13:55:06Z</time>
      </trkpt>
      <trkpt lat="47.27049" lon="-2.34488">
        <ele>1.1</ele>
        <time>2017-03-31T14:11:19Z</time>
      </trkpt>
      <trkpt lat="47.27035" lon="-2.34501">
        <ele>-0.34</ele>
        <time>2017-03-31T14:11:37Z</time>
      </trkpt>
      <trkpt lat="47.27024" lon="-2.34501">
        <ele>1.1</ele>
        <time>2017-03-31T14:11:47Z</time>
      </trkpt>
      <trkpt lat="47.27015" lon="-2.34503">
        <ele>2.54</ele>
        <time>2017-03-31T14:11:56Z</time>
      </trkpt>
      <trkpt lat="47.27004" lon="-2.34502">
        <ele>1.1</ele>
        <time>2017-03-31T14:12:06Z</time>
      </trkpt>
      <trkpt lat="47.26995" lon="-2.34499">
        <ele>1.58</ele>
        <time>2017-03-31T14:12:16Z</time>
      </trkpt>
      <trkpt lat="47.26987" lon="-2.34505">
        <ele>1.1</ele>
        <time>2017-03-31T14:12:26Z</time>
      </trkpt>
      <trkpt lat="47.26982" lon="-2.34519">
        <ele>3.5</ele>
        <time>2017-03-31T14:12:35Z</time>
      </trkpt>
      <trkpt lat="47.26975" lon="-2.34523">
        <ele>0.62</ele>
        <time>2017-03-31T14:12:45Z</time>
      </trkpt>
      <trkpt lat="47.26964" lon="-2.34532">
        <ele>3.02</ele>
        <time>2017-03-31T14:12:54Z</time>
      </trkpt>
      <trkpt lat="47.26954" lon="-2.34539">
        <ele>3.98</ele>
        <time>2017-03-31T14:13:02Z</time>
      </trkpt>
      <trkpt lat="47.26944" lon="-2.34546">
        <ele>4.46</ele>
        <time>2017-03-31T14:13:11Z</time>
      </trkpt>
      <trkpt lat="47.26933" lon="-2.34552">
        <ele>3.5</ele>
        <time>2017-03-31T14:13:22Z</time>
      </trkpt>
      <trkpt lat="47.26916" lon="-2.34557">
        <ele>2.06</ele>
        <time>2017-03-31T14:13:32Z</time>
      </trkpt>
      <trkpt lat="47.26907" lon="-2.34556">
        <ele>3.02</ele>
        <time>2017-03-31T14:13:40Z</time>
      </trkpt>
      <trkpt lat="47.26896" lon="-2.34552">
        <ele>3.02</ele>
        <time>2017-03-31T14:13:49Z</time>
      </trkpt>
      <trkpt lat="47.26885" lon="-2.34554">
        <ele>5.91</ele>
        <time>2017-03-31T14:13:58Z</time>
      </trkpt>
      <trkpt lat="47.26877" lon="-2.34549">
        <ele>3.02</ele>
        <time>2017-03-31T14:14:07Z</time>
      </trkpt>
      <trkpt lat="47.26872" lon="-2.34542">
        <ele>3.02</ele>
        <time>2017-03-31T14:14:53Z</time>
      </trkpt>
      <trkpt lat="47.26861" lon="-2.34539">
        <ele>3.98</ele>
        <time>2017-03-31T14:15:13Z</time>
      </trkpt>
      <trkpt lat="47.26847" lon="-2.3453">
        <ele>3.02</ele>
        <time>2017-03-31T14:15:23Z</time>
      </trkpt>
      <trkpt lat="47.26834" lon="-2.34526">
        <ele>0.62</ele>
        <time>2017-03-31T14:15:34Z</time>
      </trkpt>
      <trkpt lat="47.2682" lon="-2.34522">
        <ele>-1.3</ele>
        <time>2017-03-31T14:15:44Z</time>
      </trkpt>
      <trkpt lat="47.2681" lon="-2.34514">
        <ele>3.02</ele>
        <time>2017-03-31T14:16:06Z</time>
      </trkpt>
      <trkpt lat="47.26782" lon="-2.34504">
        <ele>-0.34</ele>
        <time>2017-03-31T14:16:17Z</time>
      </trkpt>
      <trkpt lat="47.2677" lon="-2.34495">
        <ele>-0.82</ele>
        <time>2017-03-31T14:16:27Z</time>
      </trkpt>
      <trkpt lat="47.26756" lon="-2.34487">
        <ele>-1.3</ele>
        <time>2017-03-31T14:16:36Z</time>
      </trkpt>
      <trkpt lat="47.26746" lon="-2.34486">
        <ele>-1.3</ele>
        <time>2017-03-31T14:16:45Z</time>
      </trkpt>
      <trkpt lat="47.26736" lon="-2.3448">
        <ele>-1.3</ele>
        <time>2017-03-31T14:16:54Z</time>
      </trkpt>
      <trkpt lat="47.26726" lon="-2.34475">
        <ele>-0.34</ele>
        <time>2017-03-31T14:17:04Z</time>
      </trkpt>
      <trkpt lat="47.26717" lon="-2.34467">
        <ele>2.54</ele>
        <time>2017-03-31T14:17:15Z</time>
      </trkpt>
      <trkpt lat="47.26703" lon="-2.34462">
        <ele>1.1</ele>
        <time>2017-03-31T14:17:25Z</time>
      </trkpt>
      <trkpt lat="47.26694" lon="-2.34455">
        <ele>-2.75</ele>
        <time>2017-03-31T14:17:36Z</time>
      </trkpt>
      <trkpt lat="47.26682" lon="-2.3445">
        <ele>1.1</ele>
        <time>2017-03-31T14:17:47Z</time>
      </trkpt>
      <trkpt lat="47.26674" lon="-2.3444">
        <ele>-1.3</ele>
        <time>2017-03-31T14:17:58Z</time>
      </trkpt>
      <trkpt lat="47.26661" lon="-2.34431">
        <ele>0.62</ele>
        <time>2017-03-31T14:18:08Z</time>
      </trkpt>
      <trkpt lat="47.26651" lon="-2.34425">
        <ele>-2.27</ele>
        <time>2017-03-31T14:18:18Z</time>
      </trkpt>
      <trkpt lat="47.26641" lon="-2.34421">
        <ele>-0.34</ele>
        <time>2017-03-31T14:18:28Z</time>
      </trkpt>
      <trkpt lat="47.26629" lon="-2.34414">
        <ele>0.62</ele>
        <time>2017-03-31T14:18:42Z</time>
      </trkpt>
      <trkpt lat="47.26619" lon="-2.34409">
        <ele>-0.82</ele>
        <time>2017-03-31T14:18:53Z</time>
      </trkpt>
      <trkpt lat="47.26607" lon="-2.34404">
        <ele>-1.79</ele>
        <time>2017-03-31T14:19:18Z</time>
      </trkpt>
      <trkpt lat="47.26594" lon="-2.34396">
        <ele>1.1</ele>
        <time>2017-03-31T14:19:30Z</time>
      </trkpt>
      <trkpt lat="47.26581" lon="-2.3439">
        <ele>-2.27</ele>
        <time>2017-03-31T14:19:42Z</time>
      </trkpt>
      <trkpt lat="47.26572" lon="-2.3438">
        <ele>-0.82</ele>
        <time>2017-03-31T14:19:50Z</time>
      </trkpt>
      <trkpt lat="47.26564" lon="-2.34369">
        <ele>0.62</ele>
        <time>2017-03-31T14:20:01Z</time>
      </trkpt>
      <trkpt lat="47.26557" lon="-2.34358">
        <ele>0.62</ele>
        <time>2017-03-31T14:20:12Z</time>
      </trkpt>
      <trkpt lat="47.26543" lon="-2.34359">
        <ele>0.62</ele>
        <time>2017-03-31T14:20:21Z</time>
      </trkpt>
      <trkpt lat="47.2653" lon="-2.34358">
        <ele>-0.82</ele>
        <time>2017-03-31T14:20:33Z</time>
      </trkpt>
      <trkpt lat="47.26523" lon="-2.34354">
        <ele>0.14</ele>
        <time>2017-03-31T14:20:44Z</time>
      </trkpt>
      <trkpt lat="47.2652" lon="-2.34342">
        <ele>-0.82</ele>
        <time>2017-03-31T14:20:53Z</time>
      </trkpt>
      <trkpt lat="47.26515" lon="-2.34333">
        <ele>-0.34</ele>
        <time>2017-03-31T14:21:01Z</time>
      </trkpt>
      <trkpt lat="47.26506" lon="-2.3433">
        <ele>-1.3</ele>
        <time>2017-03-31T14:21:11Z</time>
      </trkpt>
      <trkpt lat="47.26496" lon="-2.34324">
        <ele>-0.34</ele>
        <time>2017-03-31T14:21:23Z</time>
      </trkpt>
      <trkpt lat="47.26485" lon="-2.3432">
        <ele>1.1</ele>
        <time>2017-03-31T14:21:33Z</time>
      </trkpt>
      <trkpt lat="47.26474" lon="-2.34318">
        <ele>0.14</ele>
        <time>2017-03-31T14:21:43Z</time>
      </trkpt>
      <trkpt lat="47.26459" lon="-2.34312">
        <ele>-1.3</ele>
        <time>2017-03-31T14:21:56Z</time>
      </trkpt>
      <trkpt lat="47.26448" lon="-2.34309">
        <ele>1.58</ele>
        <time>2017-03-31T14:22:08Z</time>
      </trkpt>
      <trkpt lat="47.26437" lon="-2.34304">
        <ele>-2.27</ele>
        <time>2017-03-31T14:22:20Z</time>
      </trkpt>
      <trkpt lat="47.26427" lon="-2.34298">
        <ele>-0.82</ele>
        <time>2017-03-31T14:22:31Z</time>
      </trkpt>
      <trkpt lat="47.26417" lon="-2.34297">
        <ele>0.14</ele>
        <time>2017-03-31T14:22:43Z</time>
      </trkpt>
      <trkpt lat="47.26408" lon="-2.34289">
        <ele>-1.3</ele>
        <time>2017-03-31T14:22:53Z</time>
      </trkpt>
      <trkpt lat="47.26394" lon="-2.34286">
        <ele>-0.34</ele>
        <time>2017-03-31T14:23:04Z</time>
      </trkpt>
      <trkpt lat="47.26383" lon="-2.34283">
        <ele>-1.3</ele>
        <time>2017-03-31T14:23:15Z</time>
      </trkpt>
      <trkpt lat="47.26373" lon="-2.3428">
        <ele>0.62</ele>
        <time>2017-03-31T14:23:29Z</time>
      </trkpt>
      <trkpt lat="47.26359" lon="-2.34277">
        <ele>1.1</ele>
        <time>2017-03-31T14:23:43Z</time>
      </trkpt>
      <trkpt lat="47.2635" lon="-2.3427">
        <ele>0.14</ele>
        <time>2017-03-31T14:23:52Z</time>
      </trkpt>
      <trkpt lat="47.2634" lon="-2.34267">
        <ele>-0.34</ele>
        <time>2017-03-31T14:24:03Z</time>
      </trkpt>
      <trkpt lat="47.26329" lon="-2.34263">
        <ele>0.14</ele>
        <time>2017-03-31T14:24:14Z</time>
      </trkpt>
      <trkpt lat="47.26319" lon="-2.34257">
        <ele>0.62</ele>
        <time>2017-03-31T14:24:25Z</time>
      </trkpt>
      <trkpt lat="47.26307" lon="-2.34252">
        <ele>3.02</ele>
        <time>2017-03-31T14:24:35Z</time>
      </trkpt>
      <trkpt lat="47.26296" lon="-2.34247">
        <ele>-0.34</ele>
        <time>2017-03-31T14:24:46Z</time>
      </trkpt>
      <trkpt lat="47.26286" lon="-2.34257">
        <ele>-1.79</ele>
        <time>2017-03-31T14:24:59Z</time>
      </trkpt>
      <trkpt lat="47.26283" lon="-2.34271">
        <ele>-3.71</ele>
        <time>2017-03-31T14:25:09Z</time>
      </trkpt>
      <trkpt lat="47.26277" lon="-2.34278">
        <ele>-2.75</ele>
        <time>2017-03-31T14:25:25Z</time>
      </trkpt>
      <trkpt lat="47.26265" lon="-2.34277">
        <ele>-2.75</ele>
        <time>2017-03-31T14:25:38Z</time>
      </trkpt>
      <trkpt lat="47.26258" lon="-2.3428">
        <ele>-3.23</ele>
        <time>2017-03-31T14:25:50Z</time>
      </trkpt>
      <trkpt lat="47.26251" lon="-2.34294">
        <ele>-2.27</ele>
        <time>2017-03-31T14:25:59Z</time>
      </trkpt>
      <trkpt lat="47.26241" lon="-2.34294">
        <ele>-2.27</ele>
        <time>2017-03-31T14:26:07Z</time>
      </trkpt>
      <trkpt lat="47.26231" lon="-2.34285">
        <ele>-2.75</ele>
        <time>2017-03-31T14:26:15Z</time>
      </trkpt>
      <trkpt lat="47.26222" lon="-2.34276">
        <ele>-2.27</ele>
        <time>2017-03-31T14:26:24Z</time>
      </trkpt>
      <trkpt lat="47.26214" lon="-2.34268">
        <ele>-4.19</ele>
        <time>2017-03-31T14:26:34Z</time>
      </trkpt>
      <trkpt lat="47.26206" lon="-2.3426">
        <ele>-4.19</ele>
        <time>2017-03-31T14:26:45Z</time>
      </trkpt>
      <trkpt lat="47.26197" lon="-2.34251">
        <ele>-0.82</ele>
        <time>2017-03-31T14:27:02Z</time>
      </trkpt>
      <trkpt lat="47.26189" lon="-2.34241">
        <ele>-3.23</ele>
        <time>2017-03-31T14:27:12Z</time>
      </trkpt>
      <trkpt lat="47.26182" lon="-2.34233">
        <ele>-3.23</ele>
        <time>2017-03-31T14:27:22Z</time>
      </trkpt>
      <trkpt lat="47.26174" lon="-2.34225">
        <ele>-2.75</ele>
        <time>2017-03-31T14:27:33Z</time>
      </trkpt>
      <trkpt lat="47.26165" lon="-2.34218">
        <ele>-2.75</ele>
        <time>2017-03-31T14:27:44Z</time>
      </trkpt>
      <trkpt lat="47.26158" lon="-2.34209">
        <ele>-3.23</ele>
        <time>2017-03-31T14:28:00Z</time>
      </trkpt>
      <trkpt lat="47.26149" lon="-2.34202">
        <ele>0.14</ele>
        <time>2017-03-31T14:28:09Z</time>
      </trkpt>
      <trkpt lat="47.26139" lon="-2.34195">
        <ele>-3.23</ele>
        <time>2017-03-31T14:28:18Z</time>
      </trkpt>
      <trkpt lat="47.2613" lon="-2.34191">
        <ele>-2.27</ele>
        <time>2017-03-31T14:28:27Z</time>
      </trkpt>
      <trkpt lat="47.26121" lon="-2.34185">
        <ele>-2.27</ele>
        <time>2017-03-31T14:28:35Z</time>
      </trkpt>
      <trkpt lat="47.26111" lon="-2.34182">
        <ele>-1.3</ele>
        <time>2017-03-31T14:28:43Z</time>
      </trkpt>
      <trkpt lat="47.26102" lon="-2.34174">
        <ele>-2.75</ele>
        <time>2017-03-31T14:28:51Z</time>
      </trkpt>
      <trkpt lat="47.26092" lon="-2.34168">
        <ele>-3.23</ele>
        <time>2017-03-31T14:28:59Z</time>
      </trkpt>
      <trkpt lat="47.26082" lon="-2.34164">
        <ele>-2.75</ele>
        <time>2017-03-31T14:29:07Z</time>
      </trkpt>
      <trkpt lat="47.26071" lon="-2.34159">
        <ele>-3.71</ele>
        <time>2017-03-31T14:29:15Z</time>
      </trkpt>
      <trkpt lat="47.26063" lon="-2.34152">
        <ele>-4.19</ele>
        <time>2017-03-31T14:29:23Z</time>
      </trkpt>
      <trkpt lat="47.26053" lon="-2.34147">
        <ele>-4.19</ele>
        <time>2017-03-31T14:29:31Z</time>
      </trkpt>
      <trkpt lat="47.26044" lon="-2.3414">
        <ele>-2.27</ele>
        <time>2017-03-31T14:29:39Z</time>
      </trkpt>
      <trkpt lat="47.26035" lon="-2.34133">
        <ele>-1.3</ele>
        <time>2017-03-31T14:29:48Z</time>
      </trkpt>
      <trkpt lat="47.26038" lon="-2.34117">
        <ele>-3.23</ele>
        <time>2017-03-31T14:30:00Z</time>
      </trkpt>
      <trkpt lat="47.26036" lon="-2.34097">
        <ele>-1.79</ele>
        <time>2017-03-31T14:30:10Z</time>
      </trkpt>
      <trkpt lat="47.26023" lon="-2.34095">
        <ele>-3.71</ele>
        <time>2017-03-31T14:30:19Z</time>
      </trkpt>
      <trkpt lat="47.26013" lon="-2.34091">
        <ele>-2.75</ele>
        <time>2017-03-31T14:30:27Z</time>
      </trkpt>
      <trkpt lat="47.26003" lon="-2.34082">
        <ele>-3.23</ele>
        <time>2017-03-31T14:30:36Z</time>
      </trkpt>
      <trkpt lat="47.25993" lon="-2.34074">
        <ele>-2.75</ele>
        <time>2017-03-31T14:30:44Z</time>
      </trkpt>
      <trkpt lat="47.25991" lon="-2.34058">
        <ele>-1.79</ele>
        <time>2017-03-31T14:30:52Z</time>
      </trkpt>
      <trkpt lat="47.25991" lon="-2.34043">
        <ele>-1.79</ele>
        <time>2017-03-31T14:31:01Z</time>
      </trkpt>
      <trkpt lat="47.25993" lon="-2.34028">
        <ele>-0.34</ele>
        <time>2017-03-31T14:31:10Z</time>
      </trkpt>
      <trkpt lat="47.25995" lon="-2.34011">
        <ele>-2.27</ele>
        <time>2017-03-31T14:31:20Z</time>
      </trkpt>
      <trkpt lat="47.25996" lon="-2.33995">
        <ele>-4.67</ele>
        <time>2017-03-31T14:31:30Z</time>
      </trkpt>
      <trkpt lat="47.25997" lon="-2.33981">
        <ele>-3.23</ele>
        <time>2017-03-31T14:31:40Z</time>
      </trkpt>
      <trkpt lat="47.25999" lon="-2.33963">
        <ele>-3.23</ele>
        <time>2017-03-31T14:31:52Z</time>
      </trkpt>
      <trkpt lat="47.25998" lon="-2.33948">
        <ele>-2.75</ele>
        <time>2017-03-31T14:32:03Z</time>
      </trkpt>
      <trkpt lat="47.2599" lon="-2.33941">
        <ele>-2.75</ele>
        <time>2017-03-31T14:32:18Z</time>
      </trkpt>
      <trkpt lat="47.2599" lon="-2.33934">
        <ele>-4.19</ele>
        <time>2017-03-31T14:32:57Z</time>
      </trkpt>
      <trkpt lat="47.25992" lon="-2.33928">
        <ele>-2.75</ele>
        <time>2017-03-31T14:33:48Z</time>
      </trkpt>
      <trkpt lat="47.25976" lon="-2.33932">
        <ele>-1.79</ele>
        <time>2017-03-31T14:34:29Z</time>
      </trkpt>
      <trkpt lat="47.25967" lon="-2.33934">
        <ele>-2.75</ele>
        <time>2017-03-31T14:34:40Z</time>
      </trkpt>
      <trkpt lat="47.25959" lon="-2.33945">
        <ele>-1.79</ele>
        <time>2017-03-31T14:34:52Z</time>
      </trkpt>
      <trkpt lat="47.25948" lon="-2.3394">
        <ele>-4.19</ele>
        <time>2017-03-31T14:35:03Z</time>
      </trkpt>
      <trkpt lat="47.25936" lon="-2.33937">
        <ele>-1.79</ele>
        <time>2017-03-31T14:35:13Z</time>
      </trkpt>
      <trkpt lat="47.25926" lon="-2.33952">
        <ele>-2.75</ele>
        <time>2017-03-31T14:35:25Z</time>
      </trkpt>
      <trkpt lat="47.25919" lon="-2.33968">
        <ele>-2.27</ele>
        <time>2017-03-31T14:35:34Z</time>
      </trkpt>
      <trkpt lat="47.25912" lon="-2.33981">
        <ele>-3.23</ele>
        <time>2017-03-31T14:35:44Z</time>
      </trkpt>
      <trkpt lat="47.25913" lon="-2.33969">
        <ele>-2.75</ele>
        <time>2017-03-31T14:35:54Z</time>
      </trkpt>
      <trkpt lat="47.25906" lon="-2.33961">
        <ele>-3.71</ele>
        <time>2017-03-31T14:36:06Z</time>
      </trkpt>
      <trkpt lat="47.25894" lon="-2.33949">
        <ele>-3.71</ele>
        <time>2017-03-31T14:36:20Z</time>
      </trkpt>
      <trkpt lat="47.25872" lon="-2.33947">
        <ele>-3.71</ele>
        <time>2017-03-31T14:36:28Z</time>
      </trkpt>
      <trkpt lat="47.25864" lon="-2.33939">
        <ele>-3.71</ele>
        <time>2017-03-31T14:36:36Z</time>
      </trkpt>
      <trkpt lat="47.25851" lon="-2.33933">
        <ele>-3.23</ele>
        <time>2017-03-31T14:36:45Z</time>
      </trkpt>
      <trkpt lat="47.2584" lon="-2.33928">
        <ele>-4.67</ele>
        <time>2017-03-31T14:36:54Z</time>
      </trkpt>
      <trkpt lat="47.25829" lon="-2.33924">
        <ele>-4.19</ele>
        <time>2017-03-31T14:37:03Z</time>
      </trkpt>
      <trkpt lat="47.25819" lon="-2.3392">
        <ele>-3.23</ele>
        <time>2017-03-31T14:37:11Z</time>
      </trkpt>
      <trkpt lat="47.25809" lon="-2.33917">
        <ele>-3.71</ele>
        <time>2017-03-31T14:37:20Z</time>
      </trkpt>
      <trkpt lat="47.25797" lon="-2.33917">
        <ele>-4.19</ele>
        <time>2017-03-31T14:37:29Z</time>
      </trkpt>
      <trkpt lat="47.25788" lon="-2.33912">
        <ele>-4.67</ele>
        <time>2017-03-31T14:37:38Z</time>
      </trkpt>
      <trkpt lat="47.25777" lon="-2.33913">
        <ele>-3.23</ele>
        <time>2017-03-31T14:37:46Z</time>
      </trkpt>
      <trkpt lat="47.25767" lon="-2.33917">
        <ele>-2.27</ele>
        <time>2017-03-31T14:37:56Z</time>
      </trkpt>
      <trkpt lat="47.25763" lon="-2.3393">
        <ele>-2.27</ele>
        <time>2017-03-31T14:38:05Z</time>
      </trkpt>
      <trkpt lat="47.25762" lon="-2.33942">
        <ele>-3.23</ele>
        <time>2017-03-31T14:38:13Z</time>
      </trkpt>
      <trkpt lat="47.25764" lon="-2.33955">
        <ele>-2.75</ele>
        <time>2017-03-31T14:38:21Z</time>
      </trkpt>
      <trkpt lat="47.25765" lon="-2.33972">
        <ele>-3.23</ele>
        <time>2017-03-31T14:38:31Z</time>
      </trkpt>
      <trkpt lat="47.25766" lon="-2.33987">
        <ele>-2.75</ele>
        <time>2017-03-31T14:38:40Z</time>
      </trkpt>
      <trkpt lat="47.2577" lon="-2.33995">
        <ele>-1.79</ele>
        <time>2017-03-31T14:38:52Z</time>
      </trkpt>
      <trkpt lat="47.25782" lon="-2.33994">
        <ele>-3.23</ele>
        <time>2017-03-31T14:39:01Z</time>
      </trkpt>
      <trkpt lat="47.25793" lon="-2.33989">
        <ele>-5.15</ele>
        <time>2017-03-31T14:39:12Z</time>
      </trkpt>
      <trkpt lat="47.25804" lon="-2.3399">
        <ele>-2.27</ele>
        <time>2017-03-31T14:39:22Z</time>
      </trkpt>
      <trkpt lat="47.25814" lon="-2.33991">
        <ele>-3.23</ele>
        <time>2017-03-31T14:39:30Z</time>
      </trkpt>
      <trkpt lat="47.25819" lon="-2.34002">
        <ele>-2.75</ele>
        <time>2017-03-31T14:39:39Z</time>
      </trkpt>
      <trkpt lat="47.25815" lon="-2.34017">
        <ele>-1.3</ele>
        <time>2017-03-31T14:39:47Z</time>
      </trkpt>
      <trkpt lat="47.25816" lon="-2.34033">
        <ele>-2.27</ele>
        <time>2017-03-31T14:39:55Z</time>
      </trkpt>
      <trkpt lat="47.25813" lon="-2.34047">
        <ele>-4.67</ele>
        <time>2017-03-31T14:40:03Z</time>
      </trkpt>
      <trkpt lat="47.25809" lon="-2.34059">
        <ele>-2.75</ele>
        <time>2017-03-31T14:40:11Z</time>
      </trkpt>
      <trkpt lat="47.25803" lon="-2.34075">
        <ele>1.58</ele>
        <time>2017-03-31T14:40:20Z</time>
      </trkpt>
      <trkpt lat="47.258" lon="-2.34089">
        <ele>-1.79</ele>
        <time>2017-03-31T14:40:29Z</time>
      </trkpt>
      <trkpt lat="47.25797" lon="-2.34105">
        <ele>-1.79</ele>
        <time>2017-03-31T14:40:38Z</time>
      </trkpt>
      <trkpt lat="47.25797" lon="-2.34118">
        <ele>-1.3</ele>
        <time>2017-03-31T14:40:44Z</time>
      </trkpt>
      <trkpt lat="47.25797" lon="-2.3413">
        <ele>-1.3</ele>
        <time>2017-03-31T14:40:52Z</time>
      </trkpt>
      <trkpt lat="47.25797" lon="-2.34144">
        <ele>-0.34</ele>
        <time>2017-03-31T14:41:00Z</time>
      </trkpt>
      <trkpt lat="47.25796" lon="-2.34161">
        <ele>-0.82</ele>
        <time>2017-03-31T14:41:10Z</time>
      </trkpt>
      <trkpt lat="47.25791" lon="-2.34173">
        <ele>-1.79</ele>
        <time>2017-03-31T14:41:19Z</time>
      </trkpt>
      <trkpt lat="47.2578" lon="-2.34176">
        <ele>-4.19</ele>
        <time>2017-03-31T14:41:29Z</time>
      </trkpt>
      <trkpt lat="47.25769" lon="-2.34177">
        <ele>-4.19</ele>
        <time>2017-03-31T14:41:40Z</time>
      </trkpt>
      <trkpt lat="47.25757" lon="-2.34181">
        <ele>-3.23</ele>
        <time>2017-03-31T14:41:50Z</time>
      </trkpt>
      <trkpt lat="47.25747" lon="-2.34185">
        <ele>-2.75</ele>
        <time>2017-03-31T14:41:58Z</time>
      </trkpt>
      <trkpt lat="47.25734" lon="-2.34188">
        <ele>-0.34</ele>
        <time>2017-03-31T14:42:07Z</time>
      </trkpt>
      <trkpt lat="47.2572" lon="-2.34194">
        <ele>-1.79</ele>
        <time>2017-03-31T14:42:16Z</time>
      </trkpt>
      <trkpt lat="47.25709" lon="-2.34195">
        <ele>-2.75</ele>
        <time>2017-03-31T14:42:24Z</time>
      </trkpt>
      <trkpt lat="47.25698" lon="-2.34197">
        <ele>-1.3</ele>
        <time>2017-03-31T14:42:33Z</time>
      </trkpt>
      <trkpt lat="47.25688" lon="-2.34197">
        <ele>0.62</ele>
        <time>2017-03-31T14:42:41Z</time>
      </trkpt>
      <trkpt lat="47.25679" lon="-2.34197">
        <ele>1.58</ele>
        <time>2017-03-31T14:42:49Z</time>
      </trkpt>
      <trkpt lat="47.25669" lon="-2.34189">
        <ele>-2.27</ele>
        <time>2017-03-31T14:42:58Z</time>
      </trkpt>
      <trkpt lat="47.25661" lon="-2.34179">
        <ele>-2.27</ele>
        <time>2017-03-31T14:43:06Z</time>
      </trkpt>
      <trkpt lat="47.25655" lon="-2.34166">
        <ele>-4.67</ele>
        <time>2017-03-31T14:43:14Z</time>
      </trkpt>
      <trkpt lat="47.25649" lon="-2.34156">
        <ele>-0.82</ele>
        <time>2017-03-31T14:43:22Z</time>
      </trkpt>
      <trkpt lat="47.25644" lon="-2.34143">
        <ele>-1.79</ele>
        <time>2017-03-31T14:43:30Z</time>
      </trkpt>
      <trkpt lat="47.2564" lon="-2.34131">
        <ele>-2.75</ele>
        <time>2017-03-31T14:43:38Z</time>
      </trkpt>
      <trkpt lat="47.25634" lon="-2.3412">
        <ele>-0.34</ele>
        <time>2017-03-31T14:43:46Z</time>
      </trkpt>
      <trkpt lat="47.25629" lon="-2.34107">
        <ele>-0.34</ele>
        <time>2017-03-31T14:43:54Z</time>
      </trkpt>
      <trkpt lat="47.25624" lon="-2.34095">
        <ele>0.62</ele>
        <time>2017-03-31T14:44:02Z</time>
      </trkpt>
      <trkpt lat="47.25618" lon="-2.34084">
        <ele>-0.82</ele>
        <time>2017-03-31T14:44:10Z</time>
      </trkpt>
      <trkpt lat="47.25611" lon="-2.34071">
        <ele>-5.15</ele>
        <time>2017-03-31T14:44:18Z</time>
      </trkpt>
      <trkpt lat="47.25606" lon="-2.34058">
        <ele>-2.27</ele>
        <time>2017-03-31T14:44:26Z</time>
      </trkpt>
      <trkpt lat="47.256" lon="-2.34048">
        <ele>-6.11</ele>
        <time>2017-03-31T14:44:33Z</time>
      </trkpt>
      <trkpt lat="47.25594" lon="-2.34037">
        <ele>-5.63</ele>
        <time>2017-03-31T14:44:41Z</time>
      </trkpt>
      <trkpt lat="47.25586" lon="-2.3403">
        <ele>-6.11</ele>
        <time>2017-03-31T14:44:49Z</time>
      </trkpt>
      <trkpt lat="47.2558" lon="-2.34027">
        <ele>-6.11</ele>
        <time>2017-03-31T14:45:06Z</time>
      </trkpt>
      <trkpt lat="47.25573" lon="-2.34016">
        <ele>-6.11</ele>
        <time>2017-03-31T14:45:14Z</time>
      </trkpt>
      <trkpt lat="47.25568" lon="-2.34005">
        <ele>-5.15</ele>
        <time>2017-03-31T14:45:21Z</time>
      </trkpt>
      <trkpt lat="47.25562" lon="-2.33996">
        <ele>-7.07</ele>
        <time>2017-03-31T14:45:31Z</time>
      </trkpt>
      <trkpt lat="47.25554" lon="-2.33988">
        <ele>-4.67</ele>
        <time>2017-03-31T14:45:39Z</time>
      </trkpt>
      <trkpt lat="47.25547" lon="-2.33979">
        <ele>-6.11</ele>
        <time>2017-03-31T14:45:47Z</time>
      </trkpt>
      <trkpt lat="47.25544" lon="-2.33968">
        <ele>0.62</ele>
        <time>2017-03-31T14:45:59Z</time>
      </trkpt>
      <trkpt lat="47.25537" lon="-2.33959">
        <ele>-3.23</ele>
        <time>2017-03-31T14:46:10Z</time>
      </trkpt>
      <trkpt lat="47.25529" lon="-2.33951">
        <ele>-0.34</ele>
        <time>2017-03-31T14:46:18Z</time>
      </trkpt>
      <trkpt lat="47.25521" lon="-2.33943">
        <ele>-3.71</ele>
        <time>2017-03-31T14:46:26Z</time>
      </trkpt>
      <trkpt lat="47.25513" lon="-2.33935">
        <ele>-0.34</ele>
        <time>2017-03-31T14:46:34Z</time>
      </trkpt>
      <trkpt lat="47.25503" lon="-2.3393">
        <ele>0.62</ele>
        <time>2017-03-31T14:46:43Z</time>
      </trkpt>
      <trkpt lat="47.25494" lon="-2.33928">
        <ele>-2.27</ele>
        <time>2017-03-31T14:46:52Z</time>
      </trkpt>
      <trkpt lat="47.25489" lon="-2.33915">
        <ele>-5.15</ele>
        <time>2017-03-31T14:47:06Z</time>
      </trkpt>
      <trkpt lat="47.2548" lon="-2.33907">
        <ele>-5.63</ele>
        <time>2017-03-31T14:47:13Z</time>
      </trkpt>
      <trkpt lat="47.25474" lon="-2.33895">
        <ele>-2.75</ele>
        <time>2017-03-31T14:47:21Z</time>
      </trkpt>
      <trkpt lat="47.25468" lon="-2.33884">
        <ele>-7.55</ele>
        <time>2017-03-31T14:47:29Z</time>
      </trkpt>
      <trkpt lat="47.25462" lon="-2.33872">
        <ele>-4.19</ele>
        <time>2017-03-31T14:47:37Z</time>
      </trkpt>
      <trkpt lat="47.25455" lon="-2.33861">
        <ele>-6.11</ele>
        <time>2017-03-31T14:47:45Z</time>
      </trkpt>
      <trkpt lat="47.25448" lon="-2.33853">
        <ele>-8.51</ele>
        <time>2017-03-31T14:47:55Z</time>
      </trkpt>
      <trkpt lat="47.25438" lon="-2.33848">
        <ele>-6.59</ele>
        <time>2017-03-31T14:48:03Z</time>
      </trkpt>
      <trkpt lat="47.2543" lon="-2.33839">
        <ele>-8.51</ele>
        <time>2017-03-31T14:48:11Z</time>
      </trkpt>
      <trkpt lat="47.25423" lon="-2.33832">
        <ele>-5.63</ele>
        <time>2017-03-31T14:48:18Z</time>
      </trkpt>
      <trkpt lat="47.25417" lon="-2.33822">
        <ele>-9</ele>
        <time>2017-03-31T14:48:25Z</time>
      </trkpt>
      <trkpt lat="47.25411" lon="-2.33815">
        <ele>-8.03</ele>
        <time>2017-03-31T14:48:33Z</time>
      </trkpt>
      <trkpt lat="47.25405" lon="-2.33805">
        <ele>-7.55</ele>
        <time>2017-03-31T14:48:41Z</time>
      </trkpt>
      <trkpt lat="47.25399" lon="-2.33792">
        <ele>-7.07</ele>
        <time>2017-03-31T14:48:49Z</time>
      </trkpt>
      <trkpt lat="47.25393" lon="-2.33781">
        <ele>-8.51</ele>
        <time>2017-03-31T14:48:56Z</time>
      </trkpt>
      <trkpt lat="47.25387" lon="-2.3377">
        <ele>-6.59</ele>
        <time>2017-03-31T14:49:03Z</time>
      </trkpt>
      <trkpt lat="47.25381" lon="-2.33761">
        <ele>-7.55</ele>
        <time>2017-03-31T14:49:10Z</time>
      </trkpt>
      <trkpt lat="47.25377" lon="-2.33749">
        <ele>-6.59</ele>
        <time>2017-03-31T14:49:17Z</time>
      </trkpt>
      <trkpt lat="47.2537" lon="-2.33739">
        <ele>-9.48</ele>
        <time>2017-03-31T14:49:25Z</time>
      </trkpt>
      <trkpt lat="47.25363" lon="-2.3373">
        <ele>-5.63</ele>
        <time>2017-03-31T14:49:32Z</time>
      </trkpt>
      <trkpt lat="47.25358" lon="-2.3372">
        <ele>-8.51</ele>
        <time>2017-03-31T14:49:39Z</time>
      </trkpt>
      <trkpt lat="47.25353" lon="-2.3371">
        <ele>-5.15</ele>
        <time>2017-03-31T14:49:46Z</time>
      </trkpt>
      <trkpt lat="47.25345" lon="-2.33701">
        <ele>-5.15</ele>
        <time>2017-03-31T14:49:54Z</time>
      </trkpt>
      <trkpt lat="47.25337" lon="-2.33691">
        <ele>-9</ele>
        <time>2017-03-31T14:50:02Z</time>
      </trkpt>
      <trkpt lat="47.25329" lon="-2.33683">
        <ele>-5.15</ele>
        <time>2017-03-31T14:50:10Z</time>
      </trkpt>
      <trkpt lat="47.25321" lon="-2.33676">
        <ele>-5.63</ele>
        <time>2017-03-31T14:50:17Z</time>
      </trkpt>
      <trkpt lat="47.25314" lon="-2.33667">
        <ele>-7.07</ele>
        <time>2017-03-31T14:50:24Z</time>
      </trkpt>
      <trkpt lat="47.25308" lon="-2.33658">
        <ele>-6.11</ele>
        <time>2017-03-31T14:50:31Z</time>
      </trkpt>
      <trkpt lat="47.25301" lon="-2.33648">
        <ele>-5.63</ele>
        <time>2017-03-31T14:50:39Z</time>
      </trkpt>
      <trkpt lat="47.25294" lon="-2.33638">
        <ele>-6.11</ele>
        <time>2017-03-31T14:50:47Z</time>
      </trkpt>
      <trkpt lat="47.25287" lon="-2.33628">
        <ele>-6.11</ele>
        <time>2017-03-31T14:50:55Z</time>
      </trkpt>
      <trkpt lat="47.25283" lon="-2.33615">
        <ele>-5.63</ele>
        <time>2017-03-31T14:51:03Z</time>
      </trkpt>
      <trkpt lat="47.25276" lon="-2.33606">
        <ele>-4.67</ele>
        <time>2017-03-31T14:51:11Z</time>
      </trkpt>
      <trkpt lat="47.25268" lon="-2.33598">
        <ele>-5.15</ele>
        <time>2017-03-31T14:51:19Z</time>
      </trkpt>
      <trkpt lat="47.2526" lon="-2.3359">
        <ele>-5.63</ele>
        <time>2017-03-31T14:51:27Z</time>
      </trkpt>
      <trkpt lat="47.25252" lon="-2.3358">
        <ele>-4.67</ele>
        <time>2017-03-31T14:51:35Z</time>
      </trkpt>
      <trkpt lat="47.25245" lon="-2.3357">
        <ele>-5.63</ele>
        <time>2017-03-31T14:51:43Z</time>
      </trkpt>
      <trkpt lat="47.25239" lon="-2.33559">
        <ele>-6.59</ele>
        <time>2017-03-31T14:51:51Z</time>
      </trkpt>
      <trkpt lat="47.25232" lon="-2.33548">
        <ele>-6.59</ele>
        <time>2017-03-31T14:51:59Z</time>
      </trkpt>
      <trkpt lat="47.25225" lon="-2.33542">
        <ele>-4.67</ele>
        <time>2017-03-31T14:52:12Z</time>
      </trkpt>
      <trkpt lat="47.25218" lon="-2.33531">
        <ele>-7.55</ele>
        <time>2017-03-31T14:52:20Z</time>
      </trkpt>
      <trkpt lat="47.25213" lon="-2.33518">
        <ele>-1.79</ele>
        <time>2017-03-31T14:52:27Z</time>
      </trkpt>
      <trkpt lat="47.25209" lon="-2.33507">
        <ele>-5.63</ele>
        <time>2017-03-31T14:52:34Z</time>
      </trkpt>
      <trkpt lat="47.25203" lon="-2.33495">
        <ele>-6.11</ele>
        <time>2017-03-31T14:52:41Z</time>
      </trkpt>
      <trkpt lat="47.25199" lon="-2.33483">
        <ele>-4.19</ele>
        <time>2017-03-31T14:52:48Z</time>
      </trkpt>
      <trkpt lat="47.25195" lon="-2.33473">
        <ele>-6.11</ele>
        <time>2017-03-31T14:52:55Z</time>
      </trkpt>
      <trkpt lat="47.25189" lon="-2.33463">
        <ele>-4.67</ele>
        <time>2017-03-31T14:53:02Z</time>
      </trkpt>
      <trkpt lat="47.25183" lon="-2.33454">
        <ele>-3.71</ele>
        <time>2017-03-31T14:53:09Z</time>
      </trkpt>
      <trkpt lat="47.25178" lon="-2.33444">
        <ele>-7.55</ele>
        <time>2017-03-31T14:53:16Z</time>
      </trkpt>
      <trkpt lat="47.25175" lon="-2.33432">
        <ele>-2.75</ele>
        <time>2017-03-31T14:53:24Z</time>
      </trkpt>
      <trkpt lat="47.25169" lon="-2.33421">
        <ele>-5.63</ele>
        <time>2017-03-31T14:53:32Z</time>
      </trkpt>
      <trkpt lat="47.25162" lon="-2.33411">
        <ele>-5.15</ele>
        <time>2017-03-31T14:53:40Z</time>
      </trkpt>
      <trkpt lat="47.25156" lon="-2.334">
        <ele>-4.19</ele>
        <time>2017-03-31T14:53:48Z</time>
      </trkpt>
      <trkpt lat="47.25151" lon="-2.3339">
        <ele>-5.15</ele>
        <time>2017-03-31T14:53:55Z</time>
      </trkpt>
      <trkpt lat="47.25145" lon="-2.33382">
        <ele>-6.59</ele>
        <time>2017-03-31T14:54:03Z</time>
      </trkpt>
      <trkpt lat="47.25136" lon="-2.33378">
        <ele>-4.67</ele>
        <time>2017-03-31T14:54:11Z</time>
      </trkpt>
      <trkpt lat="47.25128" lon="-2.33371">
        <ele>-3.23</ele>
        <time>2017-03-31T14:54:19Z</time>
      </trkpt>
      <trkpt lat="47.25121" lon="-2.33362">
        <ele>-4.19</ele>
        <time>2017-03-31T14:54:27Z</time>
      </trkpt>
      <trkpt lat="47.25114" lon="-2.33353">
        <ele>-7.07</ele>
        <time>2017-03-31T14:54:35Z</time>
      </trkpt>
      <trkpt lat="47.25107" lon="-2.33342">
        <ele>-4.19</ele>
        <time>2017-03-31T14:54:43Z</time>
      </trkpt>
      <trkpt lat="47.25101" lon="-2.33331">
        <ele>-4.19</ele>
        <time>2017-03-31T14:54:51Z</time>
      </trkpt>
      <trkpt lat="47.25095" lon="-2.3332">
        <ele>-5.15</ele>
        <time>2017-03-31T14:54:59Z</time>
      </trkpt>
      <trkpt lat="47.25089" lon="-2.33309">
        <ele>-5.63</ele>
        <time>2017-03-31T14:55:07Z</time>
      </trkpt>
      <trkpt lat="47.25083" lon="-2.33297">
        <ele>-7.07</ele>
        <time>2017-03-31T14:55:15Z</time>
      </trkpt>
      <trkpt lat="47.25078" lon="-2.33285">
        <ele>-4.19</ele>
        <time>2017-03-31T14:55:23Z</time>
      </trkpt>
      <trkpt lat="47.25071" lon="-2.33274">
        <ele>-4.19</ele>
        <time>2017-03-31T14:55:31Z</time>
      </trkpt>
      <trkpt lat="47.25065" lon="-2.33263">
        <ele>-5.63</ele>
        <time>2017-03-31T14:55:39Z</time>
      </trkpt>
      <trkpt lat="47.25059" lon="-2.33253">
        <ele>-4.19</ele>
        <time>2017-03-31T14:55:46Z</time>
      </trkpt>
      <trkpt lat="47.25053" lon="-2.33243">
        <ele>-6.11</ele>
        <time>2017-03-31T14:55:53Z</time>
      </trkpt>
      <trkpt lat="47.25047" lon="-2.33234">
        <ele>-2.75</ele>
        <time>2017-03-31T14:56:00Z</time>
      </trkpt>
      <trkpt lat="47.25042" lon="-2.33222">
        <ele>-4.67</ele>
        <time>2017-03-31T14:56:08Z</time>
      </trkpt>
      <trkpt lat="47.25037" lon="-2.3321">
        <ele>-6.59</ele>
        <time>2017-03-31T14:56:16Z</time>
      </trkpt>
      <trkpt lat="47.25031" lon="-2.332">
        <ele>-3.71</ele>
        <time>2017-03-31T14:56:23Z</time>
      </trkpt>
      <trkpt lat="47.25026" lon="-2.33188">
        <ele>-4.67</ele>
        <time>2017-03-31T14:56:31Z</time>
      </trkpt>
      <trkpt lat="47.2502" lon="-2.33177">
        <ele>-5.63</ele>
        <time>2017-03-31T14:56:39Z</time>
      </trkpt>
      <trkpt lat="47.25014" lon="-2.33167">
        <ele>-3.71</ele>
        <time>2017-03-31T14:56:46Z</time>
      </trkpt>
      <trkpt lat="47.25008" lon="-2.33155">
        <ele>-5.15</ele>
        <time>2017-03-31T14:56:54Z</time>
      </trkpt>
      <trkpt lat="47.25003" lon="-2.33144">
        <ele>-5.63</ele>
        <time>2017-03-31T14:57:02Z</time>
      </trkpt>
      <trkpt lat="47.24997" lon="-2.33133">
        <ele>-3.23</ele>
        <time>2017-03-31T14:57:10Z</time>
      </trkpt>
      <trkpt lat="47.24991" lon="-2.33121">
        <ele>-3.71</ele>
        <time>2017-03-31T14:57:18Z</time>
      </trkpt>
      <trkpt lat="47.24984" lon="-2.33111">
        <ele>-5.63</ele>
        <time>2017-03-31T14:57:26Z</time>
      </trkpt>
      <trkpt lat="47.24978" lon="-2.33099">
        <ele>-4.19</ele>
        <time>2017-03-31T14:57:34Z</time>
      </trkpt>
      <trkpt lat="47.24973" lon="-2.33086">
        <ele>-4.19</ele>
        <time>2017-03-31T14:57:42Z</time>
      </trkpt>
      <trkpt lat="47.24969" lon="-2.33075">
        <ele>-4.19</ele>
        <time>2017-03-31T14:57:49Z</time>
      </trkpt>
      <trkpt lat="47.24965" lon="-2.33063">
        <ele>-2.27</ele>
        <time>2017-03-31T14:57:57Z</time>
      </trkpt>
      <trkpt lat="47.2496" lon="-2.33049">
        <ele>-5.63</ele>
        <time>2017-03-31T14:58:05Z</time>
      </trkpt>
      <trkpt lat="47.24955" lon="-2.33037">
        <ele>-2.27</ele>
        <time>2017-03-31T14:58:13Z</time>
      </trkpt>
      <trkpt lat="47.2495" lon="-2.33026">
        <ele>-5.63</ele>
        <time>2017-03-31T14:58:20Z</time>
      </trkpt>
      <trkpt lat="47.24946" lon="-2.33014">
        <ele>-4.67</ele>
        <time>2017-03-31T14:58:27Z</time>
      </trkpt>
      <trkpt lat="47.24941" lon="-2.33001">
        <ele>-4.19</ele>
        <time>2017-03-31T14:58:35Z</time>
      </trkpt>
      <trkpt lat="47.24937" lon="-2.32989">
        <ele>-4.19</ele>
        <time>2017-03-31T14:58:43Z</time>
      </trkpt>
      <trkpt lat="47.24933" lon="-2.32976">
        <ele>-2.27</ele>
        <time>2017-03-31T14:58:50Z</time>
      </trkpt>
      <trkpt lat="47.24931" lon="-2.32963">
        <ele>-3.71</ele>
        <time>2017-03-31T14:58:58Z</time>
      </trkpt>
      <trkpt lat="47.24927" lon="-2.32949">
        <ele>-2.75</ele>
        <time>2017-03-31T14:59:06Z</time>
      </trkpt>
      <trkpt lat="47.24924" lon="-2.32937">
        <ele>-4.19</ele>
        <time>2017-03-31T14:59:13Z</time>
      </trkpt>
      <trkpt lat="47.2492" lon="-2.32923">
        <ele>-2.27</ele>
        <time>2017-03-31T14:59:21Z</time>
      </trkpt>
      <trkpt lat="47.24916" lon="-2.32912">
        <ele>-4.67</ele>
        <time>2017-03-31T14:59:28Z</time>
      </trkpt>
      <trkpt lat="47.24913" lon="-2.32899">
        <ele>-2.27</ele>
        <time>2017-03-31T14:59:35Z</time>
      </trkpt>
      <trkpt lat="47.24909" lon="-2.32886">
        <ele>-5.63</ele>
        <time>2017-03-31T14:59:43Z</time>
      </trkpt>
      <trkpt lat="47.24905" lon="-2.32872">
        <ele>-2.27</ele>
        <time>2017-03-31T14:59:51Z</time>
      </trkpt>
      <trkpt lat="47.24901" lon="-2.32861">
        <ele>-4.67</ele>
        <time>2017-03-31T14:59:58Z</time>
      </trkpt>
      <trkpt lat="47.24896" lon="-2.32849">
        <ele>-3.23</ele>
        <time>2017-03-31T15:00:06Z</time>
      </trkpt>
      <trkpt lat="47.2489" lon="-2.32838">
        <ele>-3.71</ele>
        <time>2017-03-31T15:00:14Z</time>
      </trkpt>
      <trkpt lat="47.24885" lon="-2.32828">
        <ele>-3.23</ele>
        <time>2017-03-31T15:00:21Z</time>
      </trkpt>
      <trkpt lat="47.24881" lon="-2.32816">
        <ele>-1.79</ele>
        <time>2017-03-31T15:00:29Z</time>
      </trkpt>
      <trkpt lat="47.24875" lon="-2.32803">
        <ele>-4.19</ele>
        <time>2017-03-31T15:00:37Z</time>
      </trkpt>
      <trkpt lat="47.2487" lon="-2.32792">
        <ele>-3.71</ele>
        <time>2017-03-31T15:00:45Z</time>
      </trkpt>
      <trkpt lat="47.24865" lon="-2.3278">
        <ele>-4.67</ele>
        <time>2017-03-31T15:00:55Z</time>
      </trkpt>
      <trkpt lat="47.24859" lon="-2.32769">
        <ele>-3.71</ele>
        <time>2017-03-31T15:01:02Z</time>
      </trkpt>
      <trkpt lat="47.24855" lon="-2.32758">
        <ele>-3.71</ele>
        <time>2017-03-31T15:01:09Z</time>
      </trkpt>
      <trkpt lat="47.2485" lon="-2.32745">
        <ele>-2.75</ele>
        <time>2017-03-31T15:01:17Z</time>
      </trkpt>
      <trkpt lat="47.24844" lon="-2.32735">
        <ele>-3.71</ele>
        <time>2017-03-31T15:01:25Z</time>
      </trkpt>
      <trkpt lat="47.24838" lon="-2.32723">
        <ele>-2.75</ele>
        <time>2017-03-31T15:01:33Z</time>
      </trkpt>
      <trkpt lat="47.24832" lon="-2.32711">
        <ele>-3.23</ele>
        <time>2017-03-31T15:01:41Z</time>
      </trkpt>
      <trkpt lat="47.24827" lon="-2.32699">
        <ele>-5.15</ele>
        <time>2017-03-31T15:01:49Z</time>
      </trkpt>
      <trkpt lat="47.24822" lon="-2.32687">
        <ele>-3.71</ele>
        <time>2017-03-31T15:01:57Z</time>
      </trkpt>
      <trkpt lat="47.24818" lon="-2.32675">
        <ele>-5.15</ele>
        <time>2017-03-31T15:02:05Z</time>
      </trkpt>
      <trkpt lat="47.24815" lon="-2.32661">
        <ele>-2.75</ele>
        <time>2017-03-31T15:02:16Z</time>
      </trkpt>
      <trkpt lat="47.24812" lon="-2.32649">
        <ele>-1.79</ele>
        <time>2017-03-31T15:02:23Z</time>
      </trkpt>
      <trkpt lat="47.24807" lon="-2.32636">
        <ele>-2.75</ele>
        <time>2017-03-31T15:02:31Z</time>
      </trkpt>
      <trkpt lat="47.24803" lon="-2.32625">
        <ele>-4.67</ele>
        <time>2017-03-31T15:02:38Z</time>
      </trkpt>
      <trkpt lat="47.24799" lon="-2.3261">
        <ele>-4.67</ele>
        <time>2017-03-31T15:02:46Z</time>
      </trkpt>
      <trkpt lat="47.24795" lon="-2.32597">
        <ele>-3.71</ele>
        <time>2017-03-31T15:02:54Z</time>
      </trkpt>
      <trkpt lat="47.24791" lon="-2.32584">
        <ele>-2.27</ele>
        <time>2017-03-31T15:03:02Z</time>
      </trkpt>
      <trkpt lat="47.24786" lon="-2.32571">
        <ele>-1.3</ele>
        <time>2017-03-31T15:03:10Z</time>
      </trkpt>
      <trkpt lat="47.24783" lon="-2.32559">
        <ele>-1.79</ele>
        <time>2017-03-31T15:03:17Z</time>
      </trkpt>
      <trkpt lat="47.24777" lon="-2.32547">
        <ele>-1.79</ele>
        <time>2017-03-31T15:03:25Z</time>
      </trkpt>
      <trkpt lat="47.24773" lon="-2.32535">
        <ele>0.14</ele>
        <time>2017-03-31T15:03:32Z</time>
      </trkpt>
      <trkpt lat="47.24769" lon="-2.32523">
        <ele>-0.34</ele>
        <time>2017-03-31T15:03:40Z</time>
      </trkpt>
      <trkpt lat="47.24765" lon="-2.3251">
        <ele>-0.34</ele>
        <time>2017-03-31T15:03:48Z</time>
      </trkpt>
      <trkpt lat="47.24761" lon="-2.32497">
        <ele>-0.34</ele>
        <time>2017-03-31T15:03:56Z</time>
      </trkpt>
      <trkpt lat="47.24756" lon="-2.32486">
        <ele>-1.3</ele>
        <time>2017-03-31T15:04:04Z</time>
      </trkpt>
      <trkpt lat="47.24752" lon="-2.32474">
        <ele>0.14</ele>
        <time>2017-03-31T15:04:12Z</time>
      </trkpt>
      <trkpt lat="47.24747" lon="-2.32464">
        <ele>-1.3</ele>
        <time>2017-03-31T15:04:19Z</time>
      </trkpt>
      <trkpt lat="47.24743" lon="-2.32452">
        <ele>-0.34</ele>
        <time>2017-03-31T15:04:26Z</time>
      </trkpt>
      <trkpt lat="47.24737" lon="-2.32442">
        <ele>-0.82</ele>
        <time>2017-03-31T15:04:33Z</time>
      </trkpt>
      <trkpt lat="47.24732" lon="-2.3243">
        <ele>-0.34</ele>
        <time>2017-03-31T15:04:41Z</time>
      </trkpt>
      <trkpt lat="47.24725" lon="-2.32419">
        <ele>-0.82</ele>
        <time>2017-03-31T15:04:49Z</time>
      </trkpt>
      <trkpt lat="47.24721" lon="-2.32409">
        <ele>-1.79</ele>
        <time>2017-03-31T15:04:56Z</time>
      </trkpt>
      <trkpt lat="47.24717" lon="-2.32395">
        <ele>-0.34</ele>
        <time>2017-03-31T15:05:04Z</time>
      </trkpt>
      <trkpt lat="47.24712" lon="-2.32383">
        <ele>-0.82</ele>
        <time>2017-03-31T15:05:12Z</time>
      </trkpt>
      <trkpt lat="47.24707" lon="-2.32371">
        <ele>-0.82</ele>
        <time>2017-03-31T15:05:19Z</time>
      </trkpt>
      <trkpt lat="47.24701" lon="-2.3236">
        <ele>-1.3</ele>
        <time>2017-03-31T15:05:27Z</time>
      </trkpt>
      <trkpt lat="47.24696" lon="-2.32349">
        <ele>-0.82</ele>
        <time>2017-03-31T15:05:35Z</time>
      </trkpt>
      <trkpt lat="47.2469" lon="-2.32337">
        <ele>0.62</ele>
        <time>2017-03-31T15:05:44Z</time>
      </trkpt>
      <trkpt lat="47.24683" lon="-2.32328">
        <ele>-0.82</ele>
        <time>2017-03-31T15:05:50Z</time>
      </trkpt>
      <trkpt lat="47.24678" lon="-2.32317">
        <ele>-0.82</ele>
        <time>2017-03-31T15:05:57Z</time>
      </trkpt>
      <trkpt lat="47.24672" lon="-2.32307">
        <ele>0.14</ele>
        <time>2017-03-31T15:06:05Z</time>
      </trkpt>
      <trkpt lat="47.24666" lon="-2.32295">
        <ele>-0.82</ele>
        <time>2017-03-31T15:06:13Z</time>
      </trkpt>
      <trkpt lat="47.24661" lon="-2.32284">
        <ele>-0.82</ele>
        <time>2017-03-31T15:06:21Z</time>
      </trkpt>
      <trkpt lat="47.24654" lon="-2.32275">
        <ele>-1.3</ele>
        <time>2017-03-31T15:06:27Z</time>
      </trkpt>
      <trkpt lat="47.24649" lon="-2.32262">
        <ele>-0.82</ele>
        <time>2017-03-31T15:06:35Z</time>
      </trkpt>
      <trkpt lat="47.24643" lon="-2.32251">
        <ele>-1.3</ele>
        <time>2017-03-31T15:06:43Z</time>
      </trkpt>
      <trkpt lat="47.24639" lon="-2.32238">
        <ele>-0.34</ele>
        <time>2017-03-31T15:06:51Z</time>
      </trkpt>
      <trkpt lat="47.24633" lon="-2.32226">
        <ele>-0.34</ele>
        <time>2017-03-31T15:07:00Z</time>
      </trkpt>
      <trkpt lat="47.24627" lon="-2.32215">
        <ele>-1.3</ele>
        <time>2017-03-31T15:07:07Z</time>
      </trkpt>
      <trkpt lat="47.24621" lon="-2.32206">
        <ele>-0.82</ele>
        <time>2017-03-31T15:07:14Z</time>
      </trkpt>
      <trkpt lat="47.24617" lon="-2.32194">
        <ele>-0.34</ele>
        <time>2017-03-31T15:07:21Z</time>
      </trkpt>
      <trkpt lat="47.24613" lon="-2.32182">
        <ele>-0.34</ele>
        <time>2017-03-31T15:07:29Z</time>
      </trkpt>
      <trkpt lat="47.24608" lon="-2.32169">
        <ele>-0.34</ele>
        <time>2017-03-31T15:07:37Z</time>
      </trkpt>
      <trkpt lat="47.24604" lon="-2.32156">
        <ele>0.14</ele>
        <time>2017-03-31T15:07:45Z</time>
      </trkpt>
      <trkpt lat="47.24599" lon="-2.32144">
        <ele>0.62</ele>
        <time>2017-03-31T15:07:53Z</time>
      </trkpt>
      <trkpt lat="47.24596" lon="-2.32133">
        <ele>0.14</ele>
        <time>2017-03-31T15:08:01Z</time>
      </trkpt>
      <trkpt lat="47.24592" lon="-2.32119">
        <ele>0.14</ele>
        <time>2017-03-31T15:08:09Z</time>
      </trkpt>
      <trkpt lat="47.24593" lon="-2.32107">
        <ele>0.62</ele>
        <time>2017-03-31T15:08:19Z</time>
      </trkpt>
      <trkpt lat="47.24594" lon="-2.32095">
        <ele>2.06</ele>
        <time>2017-03-31T15:08:31Z</time>
      </trkpt>
      <trkpt lat="47.24588" lon="-2.32085">
        <ele>3.5</ele>
        <time>2017-03-31T15:08:40Z</time>
      </trkpt>
      <trkpt lat="47.24581" lon="-2.32076">
        <ele>5.42</ele>
        <time>2017-03-31T15:08:50Z</time>
      </trkpt>
      <trkpt lat="47.24575" lon="-2.32064">
        <ele>7.35</ele>
        <time>2017-03-31T15:09:00Z</time>
      </trkpt>
      <trkpt lat="47.24567" lon="-2.32056">
        <ele>8.31</ele>
        <time>2017-03-31T15:09:10Z</time>
      </trkpt>
      <trkpt lat="47.24559" lon="-2.32049">
        <ele>7.83</ele>
        <time>2017-03-31T15:09:19Z</time>
      </trkpt>
      <trkpt lat="47.2455" lon="-2.32042">
        <ele>7.35</ele>
        <time>2017-03-31T15:09:28Z</time>
      </trkpt>
      <trkpt lat="47.24541" lon="-2.32035">
        <ele>6.87</ele>
        <time>2017-03-31T15:09:36Z</time>
      </trkpt>
      <trkpt lat="47.24533" lon="-2.32028">
        <ele>7.83</ele>
        <time>2017-03-31T15:09:44Z</time>
      </trkpt>
      <trkpt lat="47.24523" lon="-2.32025">
        <ele>6.39</ele>
        <time>2017-03-31T15:09:53Z</time>
      </trkpt>
      <trkpt lat="47.24513" lon="-2.32019">
        <ele>7.35</ele>
        <time>2017-03-31T15:10:02Z</time>
      </trkpt>
      <trkpt lat="47.24504" lon="-2.32012">
        <ele>7.35</ele>
        <time>2017-03-31T15:10:11Z</time>
      </trkpt>
      <trkpt lat="47.24495" lon="-2.32004">
        <ele>6.87</ele>
        <time>2017-03-31T15:10:20Z</time>
      </trkpt>
      <trkpt lat="47.24487" lon="-2.31995">
        <ele>5.91</ele>
        <time>2017-03-31T15:10:29Z</time>
      </trkpt>
      <trkpt lat="47.2448" lon="-2.31986">
        <ele>7.83</ele>
        <time>2017-03-31T15:10:37Z</time>
      </trkpt>
      <trkpt lat="47.24472" lon="-2.31976">
        <ele>8.79</ele>
        <time>2017-03-31T15:10:45Z</time>
      </trkpt>
      <trkpt lat="47.24466" lon="-2.31965">
        <ele>9.27</ele>
        <time>2017-03-31T15:10:53Z</time>
      </trkpt>
      <trkpt lat="47.24462" lon="-2.31952">
        <ele>10.23</ele>
        <time>2017-03-31T15:11:01Z</time>
      </trkpt>
      <trkpt lat="47.24458" lon="-2.3194">
        <ele>10.71</ele>
        <time>2017-03-31T15:11:09Z</time>
      </trkpt>
      <trkpt lat="47.24454" lon="-2.31928">
        <ele>9.75</ele>
        <time>2017-03-31T15:11:17Z</time>
      </trkpt>
      <trkpt lat="47.2445" lon="-2.31917">
        <ele>8.31</ele>
        <time>2017-03-31T15:11:25Z</time>
      </trkpt>
      <trkpt lat="47.24445" lon="-2.31903">
        <ele>10.71</ele>
        <time>2017-03-31T15:11:34Z</time>
      </trkpt>
      <trkpt lat="47.24442" lon="-2.31889">
        <ele>8.79</ele>
        <time>2017-03-31T15:11:46Z</time>
      </trkpt>
      <trkpt lat="47.24437" lon="-2.31887">
        <ele>10.23</ele>
        <time>2017-03-31T15:12:49Z</time>
      </trkpt>
      <trkpt lat="47.24431" lon="-2.31876">
        <ele>9.75</ele>
        <time>2017-03-31T15:12:57Z</time>
      </trkpt>
      <trkpt lat="47.24423" lon="-2.31874">
        <ele>10.23</ele>
        <time>2017-03-31T15:13:05Z</time>
      </trkpt>
      <trkpt lat="47.24414" lon="-2.31868">
        <ele>9.75</ele>
        <time>2017-03-31T15:13:14Z</time>
      </trkpt>
      <trkpt lat="47.24403" lon="-2.31863">
        <ele>11.19</ele>
        <time>2017-03-31T15:13:22Z</time>
      </trkpt>
      <trkpt lat="47.24396" lon="-2.31856">
        <ele>9.75</ele>
        <time>2017-03-31T15:13:29Z</time>
      </trkpt>
      <trkpt lat="47.2439" lon="-2.31848">
        <ele>8.31</ele>
        <time>2017-03-31T15:13:36Z</time>
      </trkpt>
      <trkpt lat="47.24381" lon="-2.31839">
        <ele>9.27</ele>
        <time>2017-03-31T15:13:43Z</time>
      </trkpt>
      <trkpt lat="47.24375" lon="-2.31832">
        <ele>9.75</ele>
        <time>2017-03-31T15:13:50Z</time>
      </trkpt>
      <trkpt lat="47.24368" lon="-2.31821">
        <ele>6.39</ele>
        <time>2017-03-31T15:13:58Z</time>
      </trkpt>
      <trkpt lat="47.24361" lon="-2.3181">
        <ele>6.87</ele>
        <time>2017-03-31T15:14:06Z</time>
      </trkpt>
      <trkpt lat="47.24354" lon="-2.31799">
        <ele>6.39</ele>
        <time>2017-03-31T15:14:14Z</time>
      </trkpt>
      <trkpt lat="47.24351" lon="-2.31784">
        <ele>6.87</ele>
        <time>2017-03-31T15:14:22Z</time>
      </trkpt>
      <trkpt lat="47.24349" lon="-2.31769">
        <ele>6.39</ele>
        <time>2017-03-31T15:14:30Z</time>
      </trkpt>
      <trkpt lat="47.24348" lon="-2.31756">
        <ele>7.83</ele>
        <time>2017-03-31T15:14:38Z</time>
      </trkpt>
      <trkpt lat="47.24348" lon="-2.31743">
        <ele>7.83</ele>
        <time>2017-03-31T15:14:46Z</time>
      </trkpt>
      <trkpt lat="47.24351" lon="-2.31729">
        <ele>9.27</ele>
        <time>2017-03-31T15:14:55Z</time>
      </trkpt>
      <trkpt lat="47.24358" lon="-2.31719">
        <ele>11.67</ele>
        <time>2017-03-31T15:15:06Z</time>
      </trkpt>
      <trkpt lat="47.24361" lon="-2.3172">
        <ele>11.67</ele>
        <time>2017-03-31T15:37:29Z</time>
      </trkpt>
      <trkpt lat="47.2437" lon="-2.31717">
        <ele>12.63</ele>
        <time>2017-03-31T15:37:38Z</time>
      </trkpt>
      <trkpt lat="47.24378" lon="-2.31711">
        <ele>14.08</ele>
        <time>2017-03-31T15:37:47Z</time>
      </trkpt>
      <trkpt lat="47.24386" lon="-2.31706">
        <ele>14.56</ele>
        <time>2017-03-31T15:37:55Z</time>
      </trkpt>
      <trkpt lat="47.24396" lon="-2.31697">
        <ele>16</ele>
        <time>2017-03-31T15:38:04Z</time>
      </trkpt>
      <trkpt lat="47.24403" lon="-2.31686">
        <ele>15.04</ele>
        <time>2017-03-31T15:38:13Z</time>
      </trkpt>
      <trkpt lat="47.24411" lon="-2.31674">
        <ele>17.44</ele>
        <time>2017-03-31T15:38:22Z</time>
      </trkpt>
      <trkpt lat="47.24419" lon="-2.31669">
        <ele>16.96</ele>
        <time>2017-03-31T15:38:32Z</time>
      </trkpt>
      <trkpt lat="47.24428" lon="-2.31663">
        <ele>16.96</ele>
        <time>2017-03-31T15:38:42Z</time>
      </trkpt>
      <trkpt lat="47.24438" lon="-2.31668">
        <ele>17.44</ele>
        <time>2017-03-31T15:38:51Z</time>
      </trkpt>
      <trkpt lat="47.24448" lon="-2.31665">
        <ele>17.44</ele>
        <time>2017-03-31T15:39:03Z</time>
      </trkpt>
      <trkpt lat="47.24454" lon="-2.31653">
        <ele>19.84</ele>
        <time>2017-03-31T15:39:13Z</time>
      </trkpt>
      <trkpt lat="47.24467" lon="-2.3165">
        <ele>20.32</ele>
        <time>2017-03-31T15:39:24Z</time>
      </trkpt>
      <trkpt lat="47.24477" lon="-2.31649">
        <ele>18.4</ele>
        <time>2017-03-31T15:39:33Z</time>
      </trkpt>
      <trkpt lat="47.24489" lon="-2.3165">
        <ele>20.81</ele>
        <time>2017-03-31T15:39:45Z</time>
      </trkpt>
      <trkpt lat="47.24505" lon="-2.31645">
        <ele>19.36</ele>
        <time>2017-03-31T15:39:57Z</time>
      </trkpt>
      <trkpt lat="47.24516" lon="-2.31638">
        <ele>23.21</ele>
        <time>2017-03-31T15:40:06Z</time>
      </trkpt>
      <trkpt lat="47.24525" lon="-2.31629">
        <ele>21.29</ele>
        <time>2017-03-31T15:40:15Z</time>
      </trkpt>
      <trkpt lat="47.24534" lon="-2.3162">
        <ele>24.17</ele>
        <time>2017-03-31T15:40:24Z</time>
      </trkpt>
      <trkpt lat="47.24542" lon="-2.31611">
        <ele>19.36</ele>
        <time>2017-03-31T15:40:34Z</time>
      </trkpt>
      <trkpt lat="47.24552" lon="-2.31603">
        <ele>23.21</ele>
        <time>2017-03-31T15:40:43Z</time>
      </trkpt>
      <trkpt lat="47.2456" lon="-2.31593">
        <ele>23.69</ele>
        <time>2017-03-31T15:40:52Z</time>
      </trkpt>
      <trkpt lat="47.24569" lon="-2.31584">
        <ele>22.73</ele>
        <time>2017-03-31T15:41:01Z</time>
      </trkpt>
      <trkpt lat="47.24567" lon="-2.31576">
        <ele>22.73</ele>
        <time>2017-03-31T15:41:15Z</time>
      </trkpt>
      <trkpt lat="47.24578" lon="-2.3157">
        <ele>21.77</ele>
        <time>2017-03-31T15:41:53Z</time>
      </trkpt>
      <trkpt lat="47.24586" lon="-2.31561">
        <ele>23.69</ele>
        <time>2017-03-31T15:42:02Z</time>
      </trkpt>
      <trkpt lat="47.24596" lon="-2.3155">
        <ele>23.69</ele>
        <time>2017-03-31T15:42:11Z</time>
      </trkpt>
      <trkpt lat="47.24605" lon="-2.31542">
        <ele>22.73</ele>
        <time>2017-03-31T15:42:21Z</time>
      </trkpt>
      <trkpt lat="47.24613" lon="-2.31532">
        <ele>24.17</ele>
        <time>2017-03-31T15:42:30Z</time>
      </trkpt>
      <trkpt lat="47.24621" lon="-2.31523">
        <ele>24.17</ele>
        <time>2017-03-31T15:42:41Z</time>
      </trkpt>
      <trkpt lat="47.24632" lon="-2.31514">
        <ele>25.13</ele>
        <time>2017-03-31T15:42:50Z</time>
      </trkpt>
      <trkpt lat="47.24641" lon="-2.31504">
        <ele>24.65</ele>
        <time>2017-03-31T15:42:59Z</time>
      </trkpt>
      <trkpt lat="47.24651" lon="-2.31496">
        <ele>23.69</ele>
        <time>2017-03-31T15:43:09Z</time>
      </trkpt>
      <trkpt lat="47.24659" lon="-2.31486">
        <ele>24.65</ele>
        <time>2017-03-31T15:43:19Z</time>
      </trkpt>
      <trkpt lat="47.24669" lon="-2.31476">
        <ele>23.69</ele>
        <time>2017-03-31T15:43:29Z</time>
      </trkpt>
      <trkpt lat="47.24676" lon="-2.31466">
        <ele>27.05</ele>
        <time>2017-03-31T15:43:38Z</time>
      </trkpt>
      <trkpt lat="47.24686" lon="-2.31457">
        <ele>25.13</ele>
        <time>2017-03-31T15:43:48Z</time>
      </trkpt>
      <trkpt lat="47.24694" lon="-2.31448">
        <ele>24.17</ele>
        <time>2017-03-31T15:43:57Z</time>
      </trkpt>
      <trkpt lat="47.24704" lon="-2.31439">
        <ele>25.13</ele>
        <time>2017-03-31T15:44:08Z</time>
      </trkpt>
      <trkpt lat="47.24715" lon="-2.31431">
        <ele>24.65</ele>
        <time>2017-03-31T15:44:18Z</time>
      </trkpt>
      <trkpt lat="47.24723" lon="-2.31421">
        <ele>24.17</ele>
        <time>2017-03-31T15:44:27Z</time>
      </trkpt>
      <trkpt lat="47.24731" lon="-2.31411">
        <ele>26.09</ele>
        <time>2017-03-31T15:44:37Z</time>
      </trkpt>
      <trkpt lat="47.24741" lon="-2.314">
        <ele>23.21</ele>
        <time>2017-03-31T15:44:48Z</time>
      </trkpt>
      <trkpt lat="47.2475" lon="-2.31391">
        <ele>26.57</ele>
        <time>2017-03-31T15:44:56Z</time>
      </trkpt>
      <trkpt lat="47.24758" lon="-2.31384">
        <ele>26.57</ele>
        <time>2017-03-31T15:45:04Z</time>
      </trkpt>
      <trkpt lat="47.24767" lon="-2.31375">
        <ele>25.13</ele>
        <time>2017-03-31T15:45:13Z</time>
      </trkpt>
      <trkpt lat="47.24777" lon="-2.31366">
        <ele>25.13</ele>
        <time>2017-03-31T15:45:24Z</time>
      </trkpt>
      <trkpt lat="47.24786" lon="-2.31356">
        <ele>26.57</ele>
        <time>2017-03-31T15:45:34Z</time>
      </trkpt>
      <trkpt lat="47.24796" lon="-2.31347">
        <ele>26.57</ele>
        <time>2017-03-31T15:45:43Z</time>
      </trkpt>
      <trkpt lat="47.24804" lon="-2.31338">
        <ele>25.13</ele>
        <time>2017-03-31T15:45:52Z</time>
      </trkpt>
      <trkpt lat="47.24813" lon="-2.31331">
        <ele>27.53</ele>
        <time>2017-03-31T15:46:01Z</time>
      </trkpt>
      <trkpt lat="47.24824" lon="-2.31326">
        <ele>25.61</ele>
        <time>2017-03-31T15:46:10Z</time>
      </trkpt>
      <trkpt lat="47.24833" lon="-2.31322">
        <ele>27.53</ele>
        <time>2017-03-31T15:46:20Z</time>
      </trkpt>
      <trkpt lat="47.24842" lon="-2.31311">
        <ele>27.53</ele>
        <time>2017-03-31T15:46:32Z</time>
      </trkpt>
      <trkpt lat="47.2484" lon="-2.31295">
        <ele>25.61</ele>
        <time>2017-03-31T15:46:42Z</time>
      </trkpt>
      <trkpt lat="47.24835" lon="-2.31284">
        <ele>26.09</ele>
        <time>2017-03-31T15:46:54Z</time>
      </trkpt>
      <trkpt lat="47.24832" lon="-2.31268">
        <ele>26.09</ele>
        <time>2017-03-31T15:47:07Z</time>
      </trkpt>
      <trkpt lat="47.24827" lon="-2.31247">
        <ele>25.13</ele>
        <time>2017-03-31T15:47:20Z</time>
      </trkpt>
      <trkpt lat="47.24824" lon="-2.31229">
        <ele>27.05</ele>
        <time>2017-03-31T15:47:30Z</time>
      </trkpt>
    </trkseg>
  </trk>
</gpx>